Observation data for Happy on 06/15/2019      Previous  Date  Next       Current Mesonet Observations  Soil Data  Daily Summary Page  Observations in Plain Language
KHA2 150500Z 19023KT 26/17 A2983 RMK A01 T02560170  RH  059%=      5-min Rain = 0
KHA2 150501Z 19022G27KT 26/17 A2983 RMK A01 T02550170  RH  059%=      5-min Rain = 0
KHA2 150502Z 19024KT 26/17 A2983 RMK A01 T02560170  RH  059%=      5-min Rain = 0
KHA2 150503Z 19021G26KT 26/17 A2983 RMK A01 T02560170  RH  059%=      5-min Rain = 0
KHA2 150504Z 19019G25KT 26/17 A2983 RMK A01 T02560171  RH  059%=      5-min Rain = 0
KHA2 150505Z 19020G26KT 26/17 A2983 RMK A01 T02550171  RH  060%=      5-min Rain = 0
KHA2 150506Z 19023KT 25/17 A2983 RMK A01 T02540171  RH  060%=      5-min Rain = 0
KHA2 150507Z 19019G24KT 25/17 A2983 RMK A01 T02540171  RH  060%=      5-min Rain = 0
KHA2 150508Z 19018G24KT 25/17 A2983 RMK A01 T02540171  RH  060%=      5-min Rain = 0
KHA2 150509Z 18018G23KT 25/17 A2983 RMK A01 T02530171  RH  060%=      5-min Rain = 0
KHA2 150510Z 19022KT 25/17 A2983 RMK A01 T02520171  RH  061%=      5-min Rain = 0
KHA2 150511Z 19018KT 25/17 A2983 RMK A01 T02520171  RH  061%=      5-min Rain = 0
KHA2 150512Z 18020G25KT 25/17 A2983 RMK A01 T02520171  RH  061%=      5-min Rain = 0
KHA2 150513Z 19020KT 25/17 A2983 RMK A01 T02520171  RH  061%=      5-min Rain = 0
KHA2 150514Z 19019KT 25/17 A2983 RMK A01 T02510171  RH  061%=      5-min Rain = 0
KHA2 150515Z 18019G24KT 25/17 A2983 RMK A01 T02500171  RH  061%=      5-min Rain = 0
KHA2 150516Z 19020KT 25/17 A2983 RMK A01 T02500171  RH  062%=      5-min Rain = 0
KHA2 150517Z 19020KT 25/17 A2983 RMK A01 T02500171  RH  062%=      5-min Rain = 0
KHA2 150518Z 19021KT 25/17 A2983 RMK A01 T02510171  RH  061%=      5-min Rain = 0
KHA2 150519Z 19018KT 25/17 A2983 RMK A01 T02510172  RH  061%=      5-min Rain = 0
KHA2 150520Z 19019KT 25/17 A2983 RMK A01 T02500171  RH  062%=      5-min Rain = 0
KHA2 150521Z 19020G25KT 25/17 A2983 RMK A01 T02500171  RH  062%=      5-min Rain = 0
KHA2 150522Z 19021G27KT 25/17 A2983 RMK A01 T02500171  RH  062%=      5-min Rain = 0
KHA2 150523Z 19020KT 25/17 A2983 RMK A01 T02500171  RH  062%=      5-min Rain = 0
KHA2 150524Z 19017KT 25/17 A2983 RMK A01 T02500171  RH  062%=      5-min Rain = 0
KHA2 150525Z 19017G23KT 25/17 A2983 RMK A01 T02480171  RH  062%=      5-min Rain = 0
KHA2 150526Z 19020KT 25/17 A2983 RMK A01 T02470171  RH  063%=      5-min Rain = 0
KHA2 150527Z 19019G24KT 25/17 A2983 RMK A01 T02470171  RH  063%=      5-min Rain = 0
KHA2 150528Z 19017G24KT 25/17 A2983 RMK A01 T02480172  RH  063%=      5-min Rain = 0
KHA2 150529Z 19022KT 25/17 A2983 RMK A01 T02470172  RH  063%=      5-min Rain = 0
KHA2 150530Z 19019KT 25/17 A2983 RMK A01 T02470172  RH  063%=      5-min Rain = 0
KHA2 150531Z 19021KT 25/17 A2983 RMK A01 T02460171  RH  063%=      5-min Rain = 0
KHA2 150532Z 19021G26KT 25/17 A2983 RMK A01 T02470172  RH  063%=      5-min Rain = 0
KHA2 150533Z 19020KT 25/17 A2983 RMK A01 T02470172  RH  063%=      5-min Rain = 0
KHA2 150534Z 19020G25KT 25/17 A2983 RMK A01 T02470172  RH  063%=      5-min Rain = 0
KHA2 150535Z 19021KT 25/17 A2983 RMK A01 T02460172  RH  063%=      5-min Rain = 0
KHA2 150536Z 19020G28KT 25/17 A2983 RMK A01 T02460172  RH  063%=      5-min Rain = 0
KHA2 150537Z 19022KT 25/17 A2983 RMK A01 T02460172  RH  063%=      5-min Rain = 0
KHA2 150538Z 19020G28KT 25/17 A2983 RMK A01 T02460172  RH  063%=      5-min Rain = 0
KHA2 150539Z 19019G25KT 25/17 A2983 RMK A01 T02460172  RH  063%=      5-min Rain = 0
KHA2 150540Z 19021KT 25/17 A2983 RMK A01 T02460172  RH  064%=      5-min Rain = 0
KHA2 150541Z 19021KT 25/17 A2983 RMK A01 T02460172  RH  064%=      5-min Rain = 0
KHA2 150542Z 19020G26KT 25/17 A2983 RMK A01 T02460172  RH  064%=      5-min Rain = 0
KHA2 150543Z 19020KT 25/17 A2983 RMK A01 T02460172  RH  064%=      5-min Rain = 0
KHA2 150544Z 19019KT 25/17 A2983 RMK A01 T02450172  RH  064%=      5-min Rain = 0
KHA2 150545Z 19020KT 24/17 A2983 RMK A01 T02440172  RH  064%=      5-min Rain = 0
KHA2 150546Z 19019KT 24/17 A2983 RMK A01 T02430173  RH  065%=      5-min Rain = 0
KHA2 150547Z 19019KT 24/17 A2983 RMK A01 T02430173  RH  065%=      5-min Rain = 0
KHA2 150548Z 19020KT 24/17 A2983 RMK A01 T02430173  RH  065%=      5-min Rain = 0
KHA2 150549Z 19021KT 24/17 A2983 RMK A01 T02430172  RH  065%=      5-min Rain = 0
KHA2 150550Z 19019KT 24/17 A2983 RMK A01 T02430172  RH  065%=      5-min Rain = 0
KHA2 150551Z 19018KT 24/17 A2983 RMK A01 T02430173  RH  065%=      5-min Rain = 0
KHA2 150552Z 19018KT 24/17 A2983 RMK A01 T02420173  RH  065%=      5-min Rain = 0
KHA2 150553Z 19018KT 24/17 A2983 RMK A01 T02410172  RH  065%=      5-min Rain = 0
KHA2 150554Z 19021KT 24/17 A2983 RMK A01 T02410173  RH  066%=      5-min Rain = 0
KHA2 150555Z 19020G25KT 24/17 A2983 RMK A01 T02410173  RH  066%=      5-min Rain = 0
KHA2 150556Z 19019G24KT 24/17 A2983 RMK A01 T02410173  RH  066%=      5-min Rain = 0
KHA2 150557Z 19020G25KT 24/17 A2982 RMK A01 T02410173  RH  066%=      5-min Rain = 0
KHA2 150558Z 19021KT 24/17 A2982 RMK A01 T02410173  RH  066%=      5-min Rain = 0
KHA2 150559Z 19021KT 24/17 A2982 RMK A01 T02400173  RH  066%=      5-min Rain = 0
KHA2 150600Z 19022KT 24/17 A2982 RMK A01 T02400173  RH  066%=      5-min Rain = 0
KHA2 150601Z 19018KT 24/17 A2982 RMK A01 T02410173  RH  066%=      5-min Rain = 0
KHA2 150602Z 19019G25KT 24/17 A2982 RMK A01 T02400173  RH  066%=      5-min Rain = 0
KHA2 150603Z 19021KT 24/17 A2982 RMK A01 T02400173  RH  066%=      5-min Rain = 0
KHA2 150604Z 19021G28KT 24/17 A2982 RMK A01 T02400173  RH  066%=      5-min Rain = 0
KHA2 150605Z 19021KT 24/17 A2982 RMK A01 T02400173  RH  066%=      5-min Rain = 0
KHA2 150606Z 20022KT 24/17 A2982 RMK A01 T02400173  RH  066%=      5-min Rain = 0
KHA2 150607Z 20023KT 24/17 A2982 RMK A01 T02400173  RH  066%=      5-min Rain = 0
KHA2 150608Z 19019KT 24/17 A2982 RMK A01 T02410173  RH  066%=      5-min Rain = 0
KHA2 150609Z 20017KT 24/17 A2982 RMK A01 T02400173  RH  066%=      5-min Rain = 0
KHA2 150610Z 20021KT 24/17 A2982 RMK A01 T02390173  RH  066%=      5-min Rain = 0
KHA2 150611Z 19020G25KT 24/17 A2982 RMK A01 T02390173  RH  067%=      5-min Rain = 0
KHA2 150612Z 19022KT 24/17 A2982 RMK A01 T02390173  RH  067%=      5-min Rain = 0
KHA2 150613Z 19018KT 24/17 A2982 RMK A01 T02390173  RH  067%=      5-min Rain = 0
KHA2 150614Z 19018G26KT 24/17 A2982 RMK A01 T02380173  RH  067%=      5-min Rain = 0
KHA2 150615Z 19019KT 24/17 A2982 RMK A01 T02380173  RH  067%=      5-min Rain = 0
KHA2 150616Z 19019KT 24/17 A2982 RMK A01 T02370173  RH  067%=      5-min Rain = 0
KHA2 150617Z 19017KT 24/17 A2982 RMK A01 T02370173  RH  067%=      5-min Rain = 0
KHA2 150618Z 19018G24KT 24/17 A2982 RMK A01 T02360173  RH  068%=      5-min Rain = 0
KHA2 150619Z 19021G26KT 24/17 A2982 RMK A01 T02370173  RH  068%=      5-min Rain = 0
KHA2 150620Z 19020KT 24/17 A2982 RMK A01 T02360173  RH  068%=      5-min Rain = 0
KHA2 150621Z 19020KT 24/17 A2982 RMK A01 T02360173  RH  068%=      5-min Rain = 0
KHA2 150622Z 19020KT 24/17 A2982 RMK A01 T02360173  RH  068%=      5-min Rain = 0
KHA2 150623Z 19017KT 24/17 A2982 RMK A01 T02360173  RH  068%=      5-min Rain = 0
KHA2 150624Z 19022KT 24/17 A2982 RMK A01 T02360174  RH  068%=      5-min Rain = 0
KHA2 150625Z 19018KT 24/17 A2982 RMK A01 T02360174  RH  068%=      5-min Rain = 0
KHA2 150626Z 19020KT 24/17 A2982 RMK A01 T02350173  RH  068%=      5-min Rain = 0
KHA2 150627Z 19020KT 24/17 A2982 RMK A01 T02350173  RH  068%=      5-min Rain = 0
KHA2 150628Z 20020KT 24/17 A2982 RMK A01 T02350173  RH  068%=      5-min Rain = 0
KHA2 150629Z 20021KT 24/17 A2982 RMK A01 T02350174  RH  068%=      5-min Rain = 0
KHA2 150630Z 19023KT 24/17 A2982 RMK A01 T02350174  RH  068%=      5-min Rain = 0
KHA2 150631Z 19020KT 24/17 A2982 RMK A01 T02350173  RH  068%=      5-min Rain = 0
KHA2 150632Z 20023KT 24/17 A2982 RMK A01 T02350174  RH  068%=      5-min Rain = 0
KHA2 150633Z 20019G24KT 24/17 A2982 RMK A01 T02350174  RH  068%=      5-min Rain = 0
KHA2 150634Z 20021KT 24/17 A2982 RMK A01 T02350174  RH  068%=      5-min Rain = 0
KHA2 150635Z 20020G26KT 24/17 A2981 RMK A01 T02350174  RH  069%=      5-min Rain = 0
KHA2 150636Z 20023KT 23/17 A2981 RMK A01 T02340174  RH  069%=      5-min Rain = 0
KHA2 150637Z 20019G24KT 24/17 A2981 RMK A01 T02350174  RH  069%=      5-min Rain = 0
KHA2 150638Z 20019KT 23/17 A2981 RMK A01 T02340174  RH  069%=      5-min Rain = 0
KHA2 150639Z 20020KT 23/17 A2981 RMK A01 T02330174  RH  069%=      5-min Rain = 0
KHA2 150640Z 20019G26KT 23/17 A2981 RMK A01 T02330174  RH  069%=      5-min Rain = 0
KHA2 150641Z 20021G27KT 23/17 A2981 RMK A01 T02330174  RH  069%=      5-min Rain = 0
KHA2 150642Z 20019G26KT 23/17 A2981 RMK A01 T02330173  RH  069%=      5-min Rain = 0
KHA2 150643Z 20023KT 23/17 A2981 RMK A01 T02330174  RH  069%=      5-min Rain = 0
KHA2 150644Z 20021G26KT 23/17 A2981 RMK A01 T02330174  RH  069%=      5-min Rain = 0
KHA2 150645Z 20020KT 23/17 A2981 RMK A01 T02330174  RH  069%=      5-min Rain = 0
KHA2 150646Z 20020G26KT 23/17 A2981 RMK A01 T02330174  RH  069%=      5-min Rain = 0
KHA2 150647Z 20019KT 23/17 A2981 RMK A01 T02330174  RH  069%=      5-min Rain = 0
KHA2 150648Z 20018KT 23/17 A2981 RMK A01 T02330174  RH  070%=      5-min Rain = 0
KHA2 150649Z 20021KT 23/17 A2981 RMK A01 T02320174  RH  070%=      5-min Rain = 0
KHA2 150650Z 20020KT 23/17 A2981 RMK A01 T02310173  RH  070%=      5-min Rain = 0
KHA2 150651Z 20019KT 23/17 A2981 RMK A01 T02310173  RH  070%=      5-min Rain = 0
KHA2 150652Z 20017KT 23/17 A2981 RMK A01 T02320174  RH  070%=      5-min Rain = 0
KHA2 150653Z 20019KT 23/17 A2981 RMK A01 T02310173  RH  070%=      5-min Rain = 0
KHA2 150654Z 20023KT 23/17 A2981 RMK A01 T02310173  RH  070%=      5-min Rain = 0
KHA2 150655Z 20018KT 23/17 A2981 RMK A01 T02300173  RH  070%=      5-min Rain = 0
KHA2 150656Z 20020KT 23/17 A2981 RMK A01 T02310174  RH  070%=      5-min Rain = 0
KHA2 150657Z 20018KT 23/17 A2982 RMK A01 T02300174  RH  070%=      5-min Rain = 0
KHA2 150658Z 20020KT 23/17 A2982 RMK A01 T02300173  RH  070%=      5-min Rain = 0
KHA2 150659Z 20019KT 23/17 A2982 RMK A01 T02300174  RH  071%=      5-min Rain = 0
KHA2 150700Z 21019KT 23/17 A2982 RMK A01 T02300174  RH  071%=      5-min Rain = 0
KHA2 150701Z 20017KT 23/17 A2982 RMK A01 T02300174  RH  070%=      5-min Rain = 0
KHA2 150702Z 21018KT 23/17 A2982 RMK A01 T02290173  RH  071%=      5-min Rain = 0
KHA2 150703Z 20021KT 23/17 A2982 RMK A01 T02290173  RH  071%=      5-min Rain = 0
KHA2 150704Z 21019KT 23/17 A2982 RMK A01 T02290173  RH  071%=      5-min Rain = 0
KHA2 150705Z 21017KT 23/17 A2982 RMK A01 T02290173  RH  071%=      5-min Rain = 0
KHA2 150706Z 20019KT 23/17 A2982 RMK A01 T02290173  RH  071%=      5-min Rain = 0
KHA2 150707Z 20019KT 23/17 A2981 RMK A01 T02290174  RH  071%=      5-min Rain = 0
KHA2 150708Z 20018KT 23/17 A2981 RMK A01 T02290174  RH  071%=      5-min Rain = 0
KHA2 150709Z 21016KT 23/17 A2981 RMK A01 T02280173  RH  071%=      5-min Rain = 0
KHA2 150710Z 20019KT 23/17 A2981 RMK A01 T02280174  RH  071%=      5-min Rain = 0
KHA2 150711Z 20020KT 23/17 A2981 RMK A01 T02270173  RH  072%=      5-min Rain = 0
KHA2 150712Z 20019G25KT 23/17 A2981 RMK A01 T02270173  RH  072%=      5-min Rain = 0
KHA2 150713Z 21020KT 23/17 A2981 RMK A01 T02270173  RH  072%=      5-min Rain = 0
KHA2 150714Z 21020G26KT 23/17 A2981 RMK A01 T02270173  RH  071%=      5-min Rain = 0
KHA2 150715Z 20019G24KT 23/17 A2981 RMK A01 T02280173  RH  071%=      5-min Rain = 0
KHA2 150716Z 21020KT 23/17 A2981 RMK A01 T02280173  RH  071%=      5-min Rain = 0
KHA2 150717Z 21019KT 23/17 A2981 RMK A01 T02270173  RH  071%=      5-min Rain = 0
KHA2 150718Z 21018G25KT 23/17 A2981 RMK A01 T02270173  RH  072%=      5-min Rain = 0
KHA2 150719Z 21017KT 23/17 A2981 RMK A01 T02270173  RH  072%=      5-min Rain = 0
KHA2 150720Z 21019KT 23/17 A2981 RMK A01 T02270173  RH  072%=      5-min Rain = 0
KHA2 150721Z 21018G24KT 23/17 A2981 RMK A01 T02270173  RH  072%=      5-min Rain = 0
KHA2 150722Z 21021KT 23/17 A2981 RMK A01 T02260173  RH  072%=      5-min Rain = 0
KHA2 150723Z 21018G23KT 23/17 A2981 RMK A01 T02270173  RH  072%=      5-min Rain = 0
KHA2 150724Z 21019KT 23/17 A2981 RMK A01 T02270173  RH  072%=      5-min Rain = 0
KHA2 150725Z 21018KT 23/17 A2981 RMK A01 T02260173  RH  072%=      5-min Rain = 0
KHA2 150726Z 21021KT 23/17 A2981 RMK A01 T02260173  RH  072%=      5-min Rain = 0
KHA2 150727Z 21020G25KT 23/17 A2981 RMK A01 T02270174  RH  072%=      5-min Rain = 0
KHA2 150728Z 21020G25KT 23/17 A2981 RMK A01 T02270173  RH  072%=      5-min Rain = 0
KHA2 150729Z 21019G25KT 23/17 A2981 RMK A01 T02270173  RH  072%=      5-min Rain = 0
KHA2 150730Z 21019KT 23/17 A2981 RMK A01 T02270173  RH  072%=      5-min Rain = 0
KHA2 150731Z 21020KT 23/17 A2981 RMK A01 T02270174  RH  072%=      5-min Rain = 0
KHA2 150732Z 21020KT 23/17 A2981 RMK A01 T02260173  RH  072%=      5-min Rain = 0
KHA2 150733Z 21019KT 23/17 A2981 RMK A01 T02270173  RH  072%=      5-min Rain = 0
KHA2 150734Z 21020KT 23/17 A2981 RMK A01 T02270174  RH  072%=      5-min Rain = 0
KHA2 150735Z 21018KT 23/17 A2981 RMK A01 T02260173  RH  072%=      5-min Rain = 0
KHA2 150736Z 21018KT 23/17 A2981 RMK A01 T02260173  RH  072%=      5-min Rain = 0
KHA2 150737Z 21019G25KT 23/17 A2981 RMK A01 T02260173  RH  072%=      5-min Rain = 0
KHA2 150738Z 21018KT 23/17 A2981 RMK A01 T02260173  RH  072%=      5-min Rain = 0
KHA2 150739Z 21020KT 23/17 A2981 RMK A01 T02250172  RH  072%=      5-min Rain = 0
KHA2 150740Z 21016KT 23/17 A2981 RMK A01 T02250172  RH  072%=      5-min Rain = 0
KHA2 150741Z 21018KT 23/17 A2981 RMK A01 T02250172  RH  072%=      5-min Rain = 0
KHA2 150742Z 21018KT 23/17 A2981 RMK A01 T02250172  RH  072%=      5-min Rain = 0
KHA2 150743Z 21018KT 22/17 A2981 RMK A01 T02240172  RH  072%=      5-min Rain = 0
KHA2 150744Z 21018KT 22/17 A2981 RMK A01 T02240172  RH  072%=      5-min Rain = 0
KHA2 150745Z 21016KT 22/17 A2981 RMK A01 T02240171  RH  072%=      5-min Rain = 0
KHA2 150746Z 21015G21KT 22/17 A2981 RMK A01 T02240172  RH  072%=      5-min Rain = 0
KHA2 150747Z 21018KT 22/17 A2981 RMK A01 T02230172  RH  072%=      5-min Rain = 0
KHA2 150748Z 21017KT 22/17 A2981 RMK A01 T02230172  RH  073%=      5-min Rain = 0
KHA2 150749Z 21015KT 22/17 A2981 RMK A01 T02230172  RH  073%=      5-min Rain = 0
KHA2 150750Z 21015KT 22/17 A2981 RMK A01 T02220171  RH  073%=      5-min Rain = 0
KHA2 150751Z 20016KT 22/17 A2981 RMK A01 T02210171  RH  073%=      5-min Rain = 0
KHA2 150752Z 21016KT 22/17 A2981 RMK A01 T02210171  RH  073%=      5-min Rain = 0
KHA2 150753Z 21014KT 22/17 A2981 RMK A01 T02210171  RH  073%=      5-min Rain = 0
KHA2 150754Z 20015KT 22/17 A2981 RMK A01 T02210171  RH  073%=      5-min Rain = 0
KHA2 150755Z 20016KT 22/17 A2981 RMK A01 T02200171  RH  074%=      5-min Rain = 0
KHA2 150756Z 21015KT 22/17 A2981 RMK A01 T02200171  RH  074%=      5-min Rain = 0
KHA2 150757Z 20015KT 22/17 A2981 RMK A01 T02200171  RH  074%=      5-min Rain = 0
KHA2 150758Z 20014KT 22/17 A2981 RMK A01 T02190171  RH  074%=      5-min Rain = 0
KHA2 150759Z 20014KT 22/17 A2981 RMK A01 T02190170  RH  074%=      5-min Rain = 0
KHA2 150800Z 20016KT 22/17 A2981 RMK A01 T02180170  RH  074%=      5-min Rain = 0
KHA2 150801Z 21015KT 22/17 A2981 RMK A01 T02180171  RH  074%=      5-min Rain = 0
KHA2 150802Z 20014KT 22/17 A2981 RMK A01 T02180170  RH  074%=      5-min Rain = 0
KHA2 150803Z 20015KT 22/17 A2981 RMK A01 T02180170  RH  074%=      5-min Rain = 0
KHA2 150804Z 20013KT 22/17 A2981 RMK A01 T02180171  RH  075%=      5-min Rain = 0
KHA2 150805Z 20013G18KT 22/17 A2981 RMK A01 T02170170  RH  075%=      5-min Rain = 0
KHA2 150806Z 20014KT 22/17 A2981 RMK A01 T02160170  RH  075%=      5-min Rain = 0
KHA2 150807Z 20014KT 22/17 A2981 RMK A01 T02150170  RH  075%=      5-min Rain = 0
KHA2 150808Z 20013KT 22/17 A2981 RMK A01 T02150170  RH  076%=      5-min Rain = 0
KHA2 150809Z 20013KT 22/17 A2981 RMK A01 T02150170  RH  076%=      5-min Rain = 0
KHA2 150810Z 20013KT 21/17 A2981 RMK A01 T02140171  RH  076%=      5-min Rain = 0
KHA2 150811Z 20013KT 21/17 A2981 RMK A01 T02140171  RH  076%=      5-min Rain = 0
KHA2 150812Z 20013KT 21/17 A2981 RMK A01 T02130171  RH  077%=      5-min Rain = 0
KHA2 150813Z 19014KT 21/17 A2981 RMK A01 T02130171  RH  077%=      5-min Rain = 0
KHA2 150814Z 19013KT 21/17 A2981 RMK A01 T02130171  RH  077%=      5-min Rain = 0
KHA2 150815Z 19013KT 21/17 A2981 RMK A01 T02120171  RH  077%=      5-min Rain = 0
KHA2 150816Z 19014KT 21/17 A2981 RMK A01 T02120171  RH  078%=      5-min Rain = 0
KHA2 150817Z 20014KT 21/17 A2981 RMK A01 T02120171  RH  078%=      5-min Rain = 0
KHA2 150818Z 19012KT 21/17 A2981 RMK A01 T02120171  RH  078%=      5-min Rain = 0
KHA2 150819Z 20014KT 21/17 A2981 RMK A01 T02120172  RH  078%=      5-min Rain = 0
KHA2 150820Z 19013KT 21/17 A2981 RMK A01 T02110172  RH  078%=      5-min Rain = 0
KHA2 150821Z 19013KT 21/17 A2981 RMK A01 T02110172  RH  078%=      5-min Rain = 0
KHA2 150822Z 19013KT 21/17 A2981 RMK A01 T02110172  RH  079%=      5-min Rain = 0
KHA2 150823Z 19013KT 21/17 A2981 RMK A01 T02110172  RH  079%=      5-min Rain = 0
KHA2 150824Z 20013KT 21/17 A2981 RMK A01 T02100172  RH  079%=      5-min Rain = 0
KHA2 150825Z 19012KT 21/17 A2981 RMK A01 T02100172  RH  079%=      5-min Rain = 0
KHA2 150826Z 19014KT 21/17 A2981 RMK A01 T02100172  RH  079%=      5-min Rain = 0
KHA2 150827Z 19012KT 21/17 A2981 RMK A01 T02090172  RH  079%=      5-min Rain = 0
KHA2 150828Z 19012KT 21/17 A2981 RMK A01 T02090172  RH  079%=      5-min Rain = 0
KHA2 150829Z 19011KT 21/17 A2981 RMK A01 T02080172  RH  080%=      5-min Rain = 0
KHA2 150830Z 19013KT 21/17 A2981 RMK A01 T02070171  RH  080%=      5-min Rain = 0
KHA2 150831Z 19012KT 21/17 A2981 RMK A01 T02070172  RH  080%=      5-min Rain = 0
KHA2 150832Z 19012KT 21/17 A2981 RMK A01 T02070172  RH  080%=      5-min Rain = 0
KHA2 150833Z 19012KT 21/17 A2981 RMK A01 T02060172  RH  081%=      5-min Rain = 0
KHA2 150834Z 20013KT 21/17 A2981 RMK A01 T02060171  RH  081%=      5-min Rain = 0
KHA2 150835Z 20013KT 21/17 A2981 RMK A01 T02060171  RH  081%=      5-min Rain = 0
KHA2 150836Z 19014KT 21/17 A2981 RMK A01 T02060171  RH  081%=      5-min Rain = 0
KHA2 150837Z 19013KT 21/17 A2981 RMK A01 T02050172  RH  081%=      5-min Rain = 0
KHA2 150838Z 19014KT 21/17 A2981 RMK A01 T02060172  RH  081%=      5-min Rain = 0
KHA2 150839Z 19014KT 21/17 A2981 RMK A01 T02060172  RH  081%=      5-min Rain = 0
KHA2 150840Z 19015KT 21/17 A2981 RMK A01 T02050172  RH  081%=      5-min Rain = 0
KHA2 150841Z 19014KT 21/17 A2981 RMK A01 T02060172  RH  081%=      5-min Rain = 0
KHA2 150842Z 19013KT 21/17 A2981 RMK A01 T02050172  RH  081%=      5-min Rain = 0
KHA2 150843Z 19014KT 21/17 A2981 RMK A01 T02050172  RH  081%=      5-min Rain = 0
KHA2 150844Z 19014KT 21/17 A2981 RMK A01 T02050172  RH  082%=      5-min Rain = 0
KHA2 150845Z 19013KT 21/17 A2981 RMK A01 T02050172  RH  081%=      5-min Rain = 0
KHA2 150846Z 19014KT 21/17 A2981 RMK A01 T02050172  RH  081%=      5-min Rain = 0
KHA2 150847Z 19013KT 21/17 A2981 RMK A01 T02050172  RH  082%=      5-min Rain = 0
KHA2 150848Z 20013KT 21/17 A2981 RMK A01 T02050172  RH  082%=      5-min Rain = 0
KHA2 150849Z 19013KT 20/17 A2981 RMK A01 T02040172  RH  082%=      5-min Rain = 0
KHA2 150850Z 20015KT 21/17 A2981 RMK A01 T02050172  RH  082%=      5-min Rain = 0
KHA2 150851Z 20013KT 21/17 A2981 RMK A01 T02050172  RH  082%=      5-min Rain = 0
KHA2 150852Z 19014KT 21/17 A2981 RMK A01 T02050172  RH  082%=      5-min Rain = 0
KHA2 150853Z 19014KT 20/17 A2981 RMK A01 T02040172  RH  082%=      5-min Rain = 0
KHA2 150854Z 19015KT 20/17 A2981 RMK A01 T02040172  RH  082%=      5-min Rain = 0
KHA2 150855Z 19014KT 21/17 A2981 RMK A01 T02050173  RH  082%=      5-min Rain = 0
KHA2 150856Z 19013KT 21/17 A2981 RMK A01 T02050172  RH  082%=      5-min Rain = 0
KHA2 150857Z 19013KT 21/17 A2981 RMK A01 T02050173  RH  082%=      5-min Rain = 0
KHA2 150858Z 19014KT 21/17 A2981 RMK A01 T02050173  RH  082%=      5-min Rain = 0
KHA2 150859Z 20013KT 21/17 A2981 RMK A01 T02050172  RH  082%=      5-min Rain = 0
KHA2 150900Z 20012KT 20/17 A2981 RMK A01 T02040172  RH  082%=      5-min Rain = 0
KHA2 150901Z 20012KT 20/17 A2981 RMK A01 T02040172  RH  082%=      5-min Rain = 0
KHA2 150902Z 20011KT 20/17 A2981 RMK A01 T02030172  RH  082%=      5-min Rain = 0
KHA2 150903Z 21010KT 20/17 A2981 RMK A01 T02030172  RH  082%=      5-min Rain = 0
KHA2 150904Z 20011KT 20/17 A2981 RMK A01 T02020171  RH  082%=      5-min Rain = 0
KHA2 150905Z 20011KT 20/17 A2981 RMK A01 T02020171  RH  082%=      5-min Rain = 0
KHA2 150906Z 20011KT 20/17 A2981 RMK A01 T02020171  RH  082%=      5-min Rain = 0
KHA2 150907Z 20012KT 20/17 A2981 RMK A01 T02020171  RH  082%=      5-min Rain = 0
KHA2 150908Z 20012KT 20/17 A2981 RMK A01 T02020171  RH  082%=      5-min Rain = 0
KHA2 150909Z 20012KT 20/17 A2981 RMK A01 T02020171  RH  082%=      5-min Rain = 0
KHA2 150910Z 20009KT 20/17 A2982 RMK A01 T02020171  RH  082%=      5-min Rain = 0
KHA2 150911Z 20010KT 20/17 A2982 RMK A01 T02020171  RH  082%=      5-min Rain = 0
KHA2 150912Z 20009KT 20/17 A2982 RMK A01 T02020171  RH  082%=      5-min Rain = 0
KHA2 150913Z 21009KT 20/17 A2982 RMK A01 T02010170  RH  082%=      5-min Rain = 0
KHA2 150914Z 21009KT 20/17 A2982 RMK A01 T02000170  RH  083%=      5-min Rain = 0
KHA2 150915Z 21009KT 20/17 A2982 RMK A01 T02000170  RH  083%=      5-min Rain = 0
KHA2 150916Z 21009KT 20/17 A2982 RMK A01 T02000170  RH  083%=      5-min Rain = 0
KHA2 150917Z 21008KT 20/17 A2982 RMK A01 T01990170  RH  083%=      5-min Rain = 0
KHA2 150918Z 22009KT 20/17 A2982 RMK A01 T01990169  RH  083%=      5-min Rain = 0
KHA2 150919Z 23009KT 20/17 A2983 RMK A01 T02000170  RH  083%=      5-min Rain = 0
KHA2 150920Z 24009KT 20/17 A2983 RMK A01 T02000169  RH  083%=      5-min Rain = 0
KHA2 150921Z 25008KT 20/17 A2983 RMK A01 T02000169  RH  082%=      5-min Rain = 0
KHA2 150922Z 25008KT 20/17 A2983 RMK A01 T02000168  RH  082%=      5-min Rain = 0
KHA2 150923Z 26007KT 20/17 A2983 RMK A01 T01990168  RH  082%=      5-min Rain = 0
KHA2 150924Z 26007KT 20/17 A2984 RMK A01 T01990167  RH  082%=      5-min Rain = 0
KHA2 150925Z 27008KT 20/17 A2984 RMK A01 T01990168  RH  082%=      5-min Rain = 0
KHA2 150926Z 28007KT 20/17 A2984 RMK A01 T01990168  RH  082%=      5-min Rain = 0
KHA2 150927Z 28006KT 20/17 A2983 RMK A01 T01990168  RH  082%=      5-min Rain = 0
KHA2 150928Z 28006KT 20/17 A2983 RMK A01 T01990168  RH  082%=      5-min Rain = 0
KHA2 150929Z 27005KT 20/17 A2983 RMK A01 T01990168  RH  082%=      5-min Rain = 0
KHA2 150930Z 26005KT 20/17 A2983 RMK A01 T02000168  RH  082%=      5-min Rain = 0
KHA2 150931Z 25005KT 20/17 A2983 RMK A01 T02000168  RH  082%=      5-min Rain = 0
KHA2 150932Z 25005KT 20/17 A2983 RMK A01 T01990167  RH  082%=      5-min Rain = 0
KHA2 150933Z 24006KT 20/17 A2983 RMK A01 T01990167  RH  082%=      5-min Rain = 0
KHA2 150934Z 23005KT 20/17 A2983 RMK A01 T01980167  RH  082%=      5-min Rain = 0
KHA2 150935Z 23006KT 20/17 A2983 RMK A01 T01970167  RH  083%=      5-min Rain = 0
KHA2 150936Z 23006KT 20/17 A2983 RMK A01 T01950166  RH  083%=      5-min Rain = 0
KHA2 150937Z 22007KT 19/17 A2983 RMK A01 T01940165  RH  083%=      5-min Rain = 0
KHA2 150938Z 22007KT 19/16 A2983 RMK A01 T01920164  RH  084%=      5-min Rain = 0
KHA2 150939Z 21008KT 19/16 A2983 RMK A01 T01900163  RH  084%=      5-min Rain = 0
KHA2 150940Z 21008KT 19/16 A2983 RMK A01 T01890163  RH  085%=      5-min Rain = 0
KHA2 150941Z 21008KT 19/16 A2983 RMK A01 T01870163  RH  086%=      5-min Rain = 0
KHA2 150942Z 21009KT 19/16 A2983 RMK A01 T01860163  RH  086%=      5-min Rain = 0
KHA2 150943Z 21009KT 19/16 A2983 RMK A01 T01860162  RH  086%=      5-min Rain = 0
KHA2 150944Z 21008KT 19/16 A2983 RMK A01 T01850163  RH  087%=      5-min Rain = 0
KHA2 150945Z 22008KT 19/16 A2983 RMK A01 T01850163  RH  087%=      5-min Rain = 0
KHA2 150946Z 22009KT 19/16 A2983 RMK A01 T01850163  RH  087%=      5-min Rain = 0
KHA2 150947Z 23008KT 19/16 A2984 RMK A01 T01850163  RH  087%=      5-min Rain = 0
KHA2 150948Z 23008KT 19/16 A2984 RMK A01 T01850162  RH  087%=      5-min Rain = 0
KHA2 150949Z 24008KT 19/16 A2984 RMK A01 T01850162  RH  086%=      5-min Rain = 0
KHA2 150950Z 25007KT 19/16 A2984 RMK A01 T01850162  RH  086%=      5-min Rain = 0
KHA2 150951Z 24008KT 19/16 A2984 RMK A01 T01850161  RH  086%=      5-min Rain = 0
KHA2 150952Z 24008KT 19/16 A2984 RMK A01 T01850162  RH  086%=      5-min Rain = 0
KHA2 150953Z 24007KT 19/16 A2984 RMK A01 T01850161  RH  086%=      5-min Rain = 0
KHA2 150954Z 23007KT 19/16 A2984 RMK A01 T01850161  RH  086%=      5-min Rain = 0
KHA2 150955Z 23006KT 19/16 A2983 RMK A01 T01850161  RH  086%=      5-min Rain = 0
KHA2 150956Z 22007KT 18/16 A2983 RMK A01 T01840161  RH  086%=      5-min Rain = 0
KHA2 150957Z 21007KT 18/16 A2983 RMK A01 T01830160  RH  086%=      5-min Rain = 0
KHA2 150958Z 21007KT 18/16 A2983 RMK A01 T01820160  RH  087%=      5-min Rain = 0
KHA2 150959Z 21007KT 18/16 A2983 RMK A01 T01820160  RH  087%=      5-min Rain = 0
KHA2 151000Z 21007KT 18/16 A2983 RMK A01 T01820160  RH  087%=      5-min Rain = 0
KHA2 151001Z 22007KT 18/16 A2983 RMK A01 T01810160  RH  088%=      5-min Rain = 0
KHA2 151002Z 22007KT 18/16 A2983 RMK A01 T01810160  RH  088%=      5-min Rain = 0
KHA2 151003Z 21007KT 18/16 A2982 RMK A01 T01800160  RH  088%=      5-min Rain = 0
KHA2 151004Z 21007KT 18/16 A2982 RMK A01 T01800159  RH  088%=      5-min Rain = 0
KHA2 151005Z 20007KT 18/16 A2982 RMK A01 T01790159  RH  088%=      5-min Rain = 0
KHA2 151006Z 20007KT 18/16 A2982 RMK A01 T01790159  RH  088%=      5-min Rain = 0
KHA2 151007Z 20007KT 18/16 A2982 RMK A01 T01780159  RH  088%=      5-min Rain = 0
KHA2 151008Z 20007KT 18/16 A2983 RMK A01 T01780158  RH  088%=      5-min Rain = 0
KHA2 151009Z 20007KT 18/16 A2983 RMK A01 T01770158  RH  088%=      5-min Rain = 0
KHA2 151010Z 20007KT 18/16 A2983 RMK A01 T01760157  RH  088%=      5-min Rain = 0
KHA2 151011Z 20006KT 18/16 A2983 RMK A01 T01760157  RH  088%=      5-min Rain = 0
KHA2 151012Z 21006KT 18/16 A2983 RMK A01 T01760157  RH  088%=      5-min Rain = 0
KHA2 151013Z 21006KT 18/16 A2983 RMK A01 T01760157  RH  088%=      5-min Rain = 0
KHA2 151014Z 21006KT 18/16 A2983 RMK A01 T01760157  RH  088%=      5-min Rain = 0
KHA2 151015Z 22007KT 18/16 A2983 RMK A01 T01770157  RH  088%=      5-min Rain = 0
KHA2 151016Z 21007KT 18/16 A2983 RMK A01 T01770156  RH  088%=      5-min Rain = 0
KHA2 151017Z 20008KT 18/16 A2983 RMK A01 T01770156  RH  087%=      5-min Rain = 0
KHA2 151018Z 20009KT 18/16 A2983 RMK A01 T01760156  RH  088%=      5-min Rain = 0
KHA2 151019Z 19010KT 18/16 A2982 RMK A01 T01760156  RH  088%=      5-min Rain = 0
KHA2 151020Z 19010KT 18/16 A2982 RMK A01 T01750156  RH  089%=      5-min Rain = 0
KHA2 151021Z 18010KT 17/16 A2982 RMK A01 T01740156  RH  089%=      5-min Rain = 0
KHA2 151022Z 18010KT 17/16 A2982 RMK A01 T01730155  RH  089%=      5-min Rain = 0
KHA2 151023Z 18010KT 17/16 A2982 RMK A01 T01720156  RH  090%=      5-min Rain = 0
KHA2 151024Z 18009KT 17/16 A2982 RMK A01 T01730157  RH  090%=      5-min Rain = 0
KHA2 151025Z 19008KT 17/16 A2982 RMK A01 T01720157  RH  090%=      5-min Rain = 0
KHA2 151026Z 19007KT 17/16 A2982 RMK A01 T01720157  RH  091%=      5-min Rain = 0
KHA2 151027Z 19006KT 17/16 A2982 RMK A01 T01720156  RH  090%=      5-min Rain = 0
KHA2 151028Z 20006KT 17/16 A2982 RMK A01 T01720156  RH  090%=      5-min Rain = 0
KHA2 151029Z 22005KT 17/16 A2983 RMK A01 T01720155  RH  090%=      5-min Rain = 0
KHA2 151030Z 24004KT 17/16 A2983 RMK A01 T01720155  RH  090%=      5-min Rain = 0
KHA2 151031Z 26004KT 17/16 A2983 RMK A01 T01730155  RH  089%=      5-min Rain = 0
KHA2 151032Z 27004KT 17/15 A2983 RMK A01 T01740154  RH  088%=      5-min Rain = 0
KHA2 151033Z 27004KT 17/15 A2983 RMK A01 T01740154  RH  088%=      5-min Rain = 0
KHA2 151034Z 26004KT 18/15 A2983 RMK A01 T01750154  RH  087%=      5-min Rain = 0
KHA2 151035Z 24004KT 18/16 A2983 RMK A01 T01760155  RH  088%=      5-min Rain = 0
KHA2 151036Z 22004KT 18/16 A2983 RMK A01 T01770155  RH  087%=      5-min Rain = 0
KHA2 151037Z 21005KT 18/15 A2982 RMK A01 T01770154  RH  087%=      5-min Rain = 0
KHA2 151038Z 20005KT 18/15 A2982 RMK A01 T01760153  RH  087%=      5-min Rain = 0
KHA2 151039Z 20006KT 17/15 A2982 RMK A01 T01740152  RH  087%=      5-min Rain = 0
KHA2 151040Z 21007KT 17/15 A2983 RMK A01 T01720151  RH  087%=      5-min Rain = 0
KHA2 151041Z 21006KT 17/15 A2983 RMK A01 T01710150  RH  088%=      5-min Rain = 0
KHA2 151042Z 21006KT 17/15 A2983 RMK A01 T01690150  RH  088%=      5-min Rain = 0
KHA2 151043Z 22006KT 17/15 A2983 RMK A01 T01690151  RH  089%=      5-min Rain = 0
KHA2 151044Z 23005KT 17/15 A2983 RMK A01 T01700151  RH  089%=      5-min Rain = 0
KHA2 151045Z 23004KT 17/15 A2983 RMK A01 T01690150  RH  088%=      5-min Rain = 0
KHA2 151046Z 23005KT 17/15 A2983 RMK A01 T01690150  RH  089%=      5-min Rain = 0
KHA2 151047Z 23005KT 17/15 A2983 RMK A01 T01680150  RH  089%=      5-min Rain = 0
KHA2 151048Z 23005KT 17/15 A2983 RMK A01 T01690150  RH  089%=      5-min Rain = 0
KHA2 151049Z 22005KT 17/15 A2983 RMK A01 T01680150  RH  089%=      5-min Rain = 0
KHA2 151050Z 21006KT 17/15 A2983 RMK A01 T01680150  RH  089%=      5-min Rain = 0
KHA2 151051Z 21006KT 17/15 A2983 RMK A01 T01680150  RH  089%=      5-min Rain = 0
KHA2 151052Z 21006KT 17/15 A2983 RMK A01 T01670148  RH  089%=      5-min Rain = 0
KHA2 151053Z 21007KT 17/15 A2982 RMK A01 T01660147  RH  089%=      5-min Rain = 0
KHA2 151054Z 21007KT 17/15 A2982 RMK A01 T01650147  RH  089%=      5-min Rain = 0
KHA2 151055Z 22007KT 17/15 A2982 RMK A01 T01650147  RH  089%=      5-min Rain = 0
KHA2 151056Z 22007KT 17/15 A2982 RMK A01 T01650147  RH  089%=      5-min Rain = 0
KHA2 151057Z 22007KT 17/15 A2982 RMK A01 T01650147  RH  089%=      5-min Rain = 0
KHA2 151058Z 22008KT 16/15 A2982 RMK A01 T01640146  RH  089%=      5-min Rain = 0
KHA2 151059Z 22008KT 16/15 A2982 RMK A01 T01630146  RH  089%=      5-min Rain = 0
KHA2 151100Z 22008KT 16/15 A2982 RMK A01 T01630146  RH  089%=      5-min Rain = 0
KHA2 151101Z 21009KT 16/15 A2982 RMK A01 T01630146  RH  089%=      5-min Rain = 0
KHA2 151102Z 21008KT 16/15 A2982 RMK A01 T01630146  RH  090%=      5-min Rain = 0
KHA2 151103Z 22008KT 16/15 A2982 RMK A01 T01630146  RH  090%=      5-min Rain = 0
KHA2 151104Z 22008KT 16/15 A2982 RMK A01 T01630146  RH  090%=      5-min Rain = 0
KHA2 151105Z 21008KT 16/15 A2982 RMK A01 T01630146  RH  090%=      5-min Rain = 0
KHA2 151106Z 21008KT 16/15 A2982 RMK A01 T01630146  RH  090%=      5-min Rain = 0
KHA2 151107Z 21008KT 16/15 A2982 RMK A01 T01630146  RH  090%=      5-min Rain = 0
KHA2 151108Z 21009KT 16/15 A2982 RMK A01 T01630146  RH  090%=      5-min Rain = 0
KHA2 151109Z 21008KT 16/15 A2982 RMK A01 T01640147  RH  090%=      5-min Rain = 0
KHA2 151110Z 21008KT 16/15 A2982 RMK A01 T01640147  RH  090%=      5-min Rain = 0
KHA2 151111Z 21008KT 17/15 A2982 RMK A01 T01650147  RH  089%=      5-min Rain = 0
KHA2 151112Z 21008KT 17/15 A2982 RMK A01 T01650147  RH  089%=      5-min Rain = 0
KHA2 151113Z 21008KT 17/15 A2982 RMK A01 T01650147  RH  089%=      5-min Rain = 0
KHA2 151114Z 21008KT 17/15 A2982 RMK A01 T01650147  RH  089%=      5-min Rain = 0
KHA2 151115Z 21008KT 16/15 A2982 RMK A01 T01640146  RH  089%=      5-min Rain = 0
KHA2 151116Z 21008KT 16/15 A2983 RMK A01 T01640145  RH  089%=      5-min Rain = 0
KHA2 151117Z 21008KT 16/15 A2983 RMK A01 T01630146  RH  089%=      5-min Rain = 0
KHA2 151118Z 22007KT 16/15 A2983 RMK A01 T01630146  RH  090%=      5-min Rain = 0
KHA2 151119Z 22007KT 16/15 A2983 RMK A01 T01630146  RH  090%=      5-min Rain = 0
KHA2 151120Z 23007KT 16/15 A2983 RMK A01 T01630145  RH  089%=      5-min Rain = 0
KHA2 151121Z 24006KT 16/15 A2983 RMK A01 T01630145  RH  089%=      5-min Rain = 0
KHA2 151122Z 23007KT 16/15 A2983 RMK A01 T01630145  RH  089%=      5-min Rain = 0
KHA2 151123Z 23007KT 16/15 A2983 RMK A01 T01630145  RH  089%=      5-min Rain = 0
KHA2 151124Z 22008KT 16/15 A2983 RMK A01 T01630145  RH  089%=      5-min Rain = 0
KHA2 151125Z 21008KT 16/14 A2983 RMK A01 T01620144  RH  089%=      5-min Rain = 0
KHA2 151126Z 21009KT 16/14 A2983 RMK A01 T01610144  RH  089%=      5-min Rain = 0
KHA2 151127Z 21008KT 16/14 A2982 RMK A01 T01610144  RH  090%=      5-min Rain = 0
KHA2 151128Z 20008KT 16/14 A2982 RMK A01 T01600143  RH  090%=      5-min Rain = 0
KHA2 151129Z 21008KT 16/14 A2982 RMK A01 T01580142  RH  090%=      5-min Rain = 0
KHA2 151130Z 21007KT 16/14 A2983 RMK A01 T01570141  RH  090%=      5-min Rain = 0
KHA2 151131Z 22007KT 16/14 A2983 RMK A01 T01570141  RH  090%=      5-min Rain = 0
KHA2 151132Z 22007KT 16/14 A2983 RMK A01 T01560141  RH  091%=      5-min Rain = 0
KHA2 151133Z 22007KT 16/14 A2983 RMK A01 T01560141  RH  091%=      5-min Rain = 0
KHA2 151134Z 22007KT 16/14 A2983 RMK A01 T01560141  RH  091%=      5-min Rain = 0
KHA2 151135Z 22008KT 16/14 A2983 RMK A01 T01560141  RH  091%=      5-min Rain = 0
KHA2 151136Z 22008KT 16/14 A2983 RMK A01 T01560140  RH  090%=      5-min Rain = 0
KHA2 151137Z 22008KT 16/14 A2982 RMK A01 T01560140  RH  091%=      5-min Rain = 0
KHA2 151138Z 21009KT 16/14 A2982 RMK A01 T01550140  RH  091%=      5-min Rain = 0
KHA2 151139Z 22009KT 16/14 A2982 RMK A01 T01550140  RH  091%=      5-min Rain = 0
KHA2 151140Z 22008KT 16/14 A2982 RMK A01 T01550140  RH  091%=      5-min Rain = 0
KHA2 151141Z 22008KT 16/14 A2983 RMK A01 T01550140  RH  091%=      5-min Rain = 0
KHA2 151142Z 23008KT 16/14 A2983 RMK A01 T01550140  RH  091%=      5-min Rain = 0
KHA2 151143Z 23008KT 16/14 A2983 RMK A01 T01550139  RH  090%=      5-min Rain = 0
KHA2 151144Z 22008KT 16/14 A2983 RMK A01 T01550139  RH  090%=      5-min Rain = 0
KHA2 151145Z 22008KT 16/14 A2983 RMK A01 T01550139  RH  090%=      5-min Rain = 0
KHA2 151146Z 22009KT 15/14 A2983 RMK A01 T01540139  RH  091%=      5-min Rain = 0
KHA2 151147Z 22009KT 15/14 A2983 RMK A01 T01540140  RH  091%=      5-min Rain = 0
KHA2 151148Z 21008KT 15/14 A2983 RMK A01 T01540140  RH  091%=      5-min Rain = 0
KHA2 151149Z 22009KT 15/14 A2983 RMK A01 T01540140  RH  091%=      5-min Rain = 0
KHA2 151150Z 22008KT 15/14 A2983 RMK A01 T01540140  RH  091%=      5-min Rain = 0
KHA2 151151Z 22008KT 15/14 A2983 RMK A01 T01540139  RH  091%=      5-min Rain = 0
KHA2 151152Z 22008KT 15/14 A2983 RMK A01 T01540140  RH  091%=      5-min Rain = 0
KHA2 151153Z 22007KT 16/14 A2983 RMK A01 T01550140  RH  091%=      5-min Rain = 0
KHA2 151154Z 23007KT 16/14 A2983 RMK A01 T01560140  RH  091%=      5-min Rain = 0
KHA2 151155Z 23007KT 16/14 A2983 RMK A01 T01560140  RH  090%=      5-min Rain = 0
KHA2 151156Z 23006KT 16/14 A2984 RMK A01 T01560140  RH  090%=      5-min Rain = 0
KHA2 151157Z 24006KT 16/14 A2984 RMK A01 T01570140  RH  090%=      5-min Rain = 0
KHA2 151158Z 24007KT 16/14 A2984 RMK A01 T01570140  RH  090%=      5-min Rain = 0
KHA2 151159Z 24006KT 16/14 A2984 RMK A01 T01570140  RH  090%=      5-min Rain = 0
KHA2 151200Z 24006KT 16/14 A2984 RMK A01 T01560139  RH  090%=      5-min Rain = 0
KHA2 151201Z 25006KT 16/14 A2984 RMK A01 T01570139  RH  089%=      5-min Rain = 0
KHA2 151202Z 25006KT 16/14 A2984 RMK A01 T01560139  RH  089%=      5-min Rain = 0
KHA2 151203Z 25006KT 16/14 A2984 RMK A01 T01570139  RH  089%=      5-min Rain = 0
KHA2 151204Z 24006KT 16/14 A2984 RMK A01 T01580141  RH  089%=      5-min Rain = 0
KHA2 151205Z 27007KT 16/14 A2984 RMK A01 T01580141  RH  089%=      5-min Rain = 0
KHA2 151206Z 26007KT 16/14 A2984 RMK A01 T01590140  RH  089%=      5-min Rain = 0
KHA2 151207Z 23009KT 16/14 A2984 RMK A01 T01590140  RH  088%=      5-min Rain = 0
KHA2 151208Z 22008KT 16/14 A2984 RMK A01 T01610142  RH  088%=      5-min Rain = 0
KHA2 151209Z 23008KT 16/14 A2984 RMK A01 T01610142  RH  088%=      5-min Rain = 0
KHA2 151210Z 25007KT 16/14 A2984 RMK A01 T01620141  RH  088%=      5-min Rain = 0
KHA2 151211Z 25007KT 16/14 A2984 RMK A01 T01610140  RH  088%=      5-min Rain = 0
KHA2 151212Z 24007KT 16/14 A2984 RMK A01 T01600140  RH  088%=      5-min Rain = 0
KHA2 151213Z 23007KT 16/14 A2984 RMK A01 T01600140  RH  088%=      5-min Rain = 0
KHA2 151214Z 24006KT 16/14 A2984 RMK A01 T01600140  RH  088%=      5-min Rain = 0
KHA2 151215Z 25006KT 16/14 A2984 RMK A01 T01590140  RH  088%=      5-min Rain = 0
KHA2 151216Z 25006KT 16/14 A2984 RMK A01 T01590139  RH  088%=      5-min Rain = 0
KHA2 151217Z 25007KT 16/14 A2984 RMK A01 T01590140  RH  088%=      5-min Rain = 0
KHA2 151218Z 25007KT 16/14 A2984 RMK A01 T01590139  RH  088%=      5-min Rain = 0
KHA2 151219Z 26008KT 16/14 A2984 RMK A01 T01590139  RH  088%=      5-min Rain = 0
KHA2 151220Z 25007KT 16/14 A2984 RMK A01 T01600139  RH  088%=      5-min Rain = 0
KHA2 151221Z 26008KT 16/14 A2984 RMK A01 T01600139  RH  087%=      5-min Rain = 0
KHA2 151222Z 25008KT 16/14 A2984 RMK A01 T01610139  RH  087%=      5-min Rain = 0
KHA2 151223Z 25007KT 16/14 A2984 RMK A01 T01620139  RH  086%=      5-min Rain = 0
KHA2 151224Z 26008KT 16/14 A2984 RMK A01 T01620139  RH  086%=      5-min Rain = 0
KHA2 151225Z 26008KT 16/14 A2984 RMK A01 T01630139  RH  086%=      5-min Rain = 0
KHA2 151226Z 26009KT 16/14 A2984 RMK A01 T01630140  RH  086%=      5-min Rain = 0
KHA2 151227Z 26009KT 16/14 A2984 RMK A01 T01630140  RH  086%=      5-min Rain = 0
KHA2 151228Z 26009KT 16/14 A2984 RMK A01 T01640140  RH  086%=      5-min Rain = 0
KHA2 151229Z 25008KT 17/14 A2984 RMK A01 T01650140  RH  085%=      5-min Rain = 0
KHA2 151230Z 26009KT 17/14 A2984 RMK A01 T01660140  RH  085%=      5-min Rain = 0
KHA2 151231Z 26009KT 17/14 A2984 RMK A01 T01660139  RH  084%=      5-min Rain = 0
KHA2 151232Z 25008KT 17/14 A2984 RMK A01 T01670139  RH  084%=      5-min Rain = 0
KHA2 151233Z 26008KT 17/14 A2984 RMK A01 T01670140  RH  084%=      5-min Rain = 0
KHA2 151234Z 26009KT 17/14 A2984 RMK A01 T01670140  RH  084%=      5-min Rain = 0
KHA2 151235Z 26007KT 17/14 A2983 RMK A01 T01680140  RH  084%=      5-min Rain = 0
KHA2 151236Z 26008KT 17/14 A2983 RMK A01 T01680140  RH  083%=      5-min Rain = 0
KHA2 151237Z 27007KT 17/14 A2983 RMK A01 T01680140  RH  083%=      5-min Rain = 0
KHA2 151238Z 27007KT 17/14 A2983 RMK A01 T01690140  RH  083%=      5-min Rain = 0
KHA2 151239Z 28008KT 17/14 A2983 RMK A01 T01690138  RH  082%=      5-min Rain = 0
KHA2 151240Z 28008KT 17/14 A2983 RMK A01 T01700137  RH  081%=      5-min Rain = 0
KHA2 151241Z 28009KT 17/14 A2984 RMK A01 T01710137  RH  080%=      5-min Rain = 0
KHA2 151242Z 28009KT 17/14 A2983 RMK A01 T01710137  RH  080%=      5-min Rain = 0
KHA2 151243Z 29008KT 17/14 A2983 RMK A01 T01710135  RH  079%=      5-min Rain = 0
KHA2 151244Z 29007KT 17/14 A2983 RMK A01 T01710135  RH  079%=      5-min Rain = 0
KHA2 151245Z 29008KT 17/13 A2983 RMK A01 T01720132  RH  077%=      5-min Rain = 0
KHA2 151246Z 29009KT 17/13 A2983 RMK A01 T01730130  RH  076%=      5-min Rain = 0
KHA2 151247Z 29009KT 17/13 A2983 RMK A01 T01730125  RH  074%=      5-min Rain = 0
KHA2 151248Z 29010KT 17/12 A2983 RMK A01 T01730122  RH  072%=      5-min Rain = 0
KHA2 151249Z 29010KT 17/12 A2983 RMK A01 T01740123  RH  072%=      5-min Rain = 0
KHA2 151250Z 29008KT 17/12 A2983 RMK A01 T01740123  RH  072%=      5-min Rain = 0
KHA2 151251Z 29010KT 17/12 A2983 RMK A01 T01740122  RH  071%=      5-min Rain = 0
KHA2 151252Z 29010KT 17/12 A2983 RMK A01 T01740118  RH  070%=      5-min Rain = 0
KHA2 151253Z 30010KT 17/12 A2983 RMK A01 T01740117  RH  069%=      5-min Rain = 0
KHA2 151254Z 30010KT 17/12 A2983 RMK A01 T01740117  RH  069%=      5-min Rain = 0
KHA2 151255Z 30009KT 18/12 A2983 RMK A01 T01750116  RH  069%=      5-min Rain = 0
KHA2 151256Z 30008KT 18/12 A2983 RMK A01 T01750116  RH  068%=      5-min Rain = 0
KHA2 151257Z 29008KT 18/12 A2983 RMK A01 T01750118  RH  069%=      5-min Rain = 0
KHA2 151258Z 30011KT 18/12 A2983 RMK A01 T01750115  RH  068%=      5-min Rain = 0
KHA2 151259Z 30011KT 18/11 A2983 RMK A01 T01750113  RH  067%=      5-min Rain = 0
KHA2 151300Z 30011KT 18/11 A2983 RMK A01 T01750113  RH  067%=      5-min Rain = 0
KHA2 151301Z 30011KT 18/11 A2983 RMK A01 T01750113  RH  067%=      5-min Rain = 0
KHA2 151302Z 30012KT 18/11 A2984 RMK A01 T01760112  RH  066%=      5-min Rain = 0
KHA2 151303Z 30013KT 18/11 A2984 RMK A01 T01760112  RH  066%=      5-min Rain = 0
KHA2 151304Z 30012KT 18/11 A2984 RMK A01 T01760113  RH  067%=      5-min Rain = 0
KHA2 151305Z 31014KT 18/11 A2984 RMK A01 T01750114  RH  067%=      5-min Rain = 0
KHA2 151306Z 31013KT 18/12 A2984 RMK A01 T01750115  RH  068%=      5-min Rain = 0
KHA2 151307Z 31015KT 17/12 A2983 RMK A01 T01740116  RH  069%=      5-min Rain = 0
KHA2 151308Z 31014KT 17/12 A2983 RMK A01 T01720118  RH  070%=      5-min Rain = 0
KHA2 151309Z 31014KT 17/12 A2983 RMK A01 T01720119  RH  071%=      5-min Rain = 0
KHA2 151310Z 31014KT 17/12 A2984 RMK A01 T01720120  RH  072%=      5-min Rain = 0
KHA2 151311Z 31012KT 17/12 A2984 RMK A01 T01720121  RH  072%=      5-min Rain = 0
KHA2 151312Z 31014KT 17/12 A2984 RMK A01 T01730122  RH  072%=      5-min Rain = 0
KHA2 151313Z 32012KT 17/12 A2984 RMK A01 T01730123  RH  072%=      5-min Rain = 0
KHA2 151314Z 32014KT 17/12 A2984 RMK A01 T01730123  RH  072%=      5-min Rain = 0
KHA2 151315Z 32013KT 17/12 A2983 RMK A01 T01730124  RH  073%=      5-min Rain = 0
KHA2 151316Z 32013KT 18/13 A2983 RMK A01 T01750126  RH  073%=      5-min Rain = 0
KHA2 151317Z 32013KT 18/13 A2983 RMK A01 T01760127  RH  073%=      5-min Rain = 0
KHA2 151318Z 32014KT 18/13 A2983 RMK A01 T01770128  RH  073%=      5-min Rain = 0
KHA2 151319Z 32014KT 18/13 A2983 RMK A01 T01780129  RH  073%=      5-min Rain = 0
KHA2 151320Z 32014KT 18/13 A2984 RMK A01 T01790131  RH  073%=      5-min Rain = 0
KHA2 151321Z 32017KT 18/13 A2984 RMK A01 T01810131  RH  073%=      5-min Rain = 0
KHA2 151322Z 32018KT 18/13 A2984 RMK A01 T01810131  RH  072%=      5-min Rain = 0
KHA2 151323Z 32016KT 18/13 A2984 RMK A01 T01810131  RH  073%=      5-min Rain = 0
KHA2 151324Z 32017KT 18/13 A2983 RMK A01 T01810131  RH  073%=      5-min Rain = 0
KHA2 151325Z 32016KT 18/13 A2983 RMK A01 T01810131  RH  072%=      5-min Rain = 0
KHA2 151326Z 31016KT 18/13 A2984 RMK A01 T01810131  RH  073%=      5-min Rain = 0
KHA2 151327Z 31015KT 18/13 A2984 RMK A01 T01820132  RH  073%=      5-min Rain = 0
KHA2 151328Z 31016KT 18/13 A2983 RMK A01 T01820132  RH  073%=      5-min Rain = 0
KHA2 151329Z 32017KT 18/13 A2984 RMK A01 T01820132  RH  072%=      5-min Rain = 0
KHA2 151330Z 32017KT 18/13 A2984 RMK A01 T01820133  RH  073%=      5-min Rain = 0
KHA2 151331Z 32016KT 18/13 A2984 RMK A01 T01820133  RH  073%=      5-min Rain = 0
KHA2 151332Z 32017KT 18/13 A2984 RMK A01 T01830133  RH  073%=      5-min Rain = 0
KHA2 151333Z 32017KT 18/13 A2984 RMK A01 T01830134  RH  073%=      5-min Rain = 0
KHA2 151334Z 32014KT 18/14 A2984 RMK A01 T01840135  RH  073%=      5-min Rain = 0
KHA2 151335Z 33017KT 19/14 A2984 RMK A01 T01860135  RH  072%=      5-min Rain = 0
KHA2 151336Z 32016KT 19/14 A2984 RMK A01 T01860135  RH  072%=      5-min Rain = 0
KHA2 151337Z 32016KT 19/14 A2984 RMK A01 T01870136  RH  072%=      5-min Rain = 0
KHA2 151338Z 32017KT 19/14 A2984 RMK A01 T01880136  RH  072%=      5-min Rain = 0
KHA2 151339Z 32018KT 19/14 A2984 RMK A01 T01870136  RH  072%=      5-min Rain = 0
KHA2 151340Z 32019KT 19/14 A2984 RMK A01 T01870136  RH  072%=      5-min Rain = 0
KHA2 151341Z 32017KT 19/14 A2984 RMK A01 T01880136  RH  072%=      5-min Rain = 0
KHA2 151342Z 32016KT 19/14 A2984 RMK A01 T01880137  RH  072%=      5-min Rain = 0
KHA2 151343Z 32017KT 19/14 A2984 RMK A01 T01900137  RH  071%=      5-min Rain = 0
KHA2 151344Z 32017KT 19/14 A2984 RMK A01 T01900137  RH  071%=      5-min Rain = 0
KHA2 151345Z 32018KT 19/14 A2985 RMK A01 T01900137  RH  071%=      5-min Rain = 0
KHA2 151346Z 32016KT 19/14 A2985 RMK A01 T01900138  RH  071%=      5-min Rain = 0
KHA2 151347Z 32016KT 19/14 A2985 RMK A01 T01910137  RH  071%=      5-min Rain = 0
KHA2 151348Z 32017KT 19/14 A2985 RMK A01 T01920138  RH  071%=      5-min Rain = 0
KHA2 151349Z 31016KT 19/14 A2985 RMK A01 T01920139  RH  071%=      5-min Rain = 0
KHA2 151350Z 31017KT 19/14 A2984 RMK A01 T01940139  RH  070%=      5-min Rain = 0
KHA2 151351Z 32016KT 19/14 A2984 RMK A01 T01940139  RH  070%=      5-min Rain = 0
KHA2 151352Z 31016KT 20/14 A2984 RMK A01 T01950139  RH  070%=      5-min Rain = 0
KHA2 151353Z 32016KT 20/14 A2984 RMK A01 T01960139  RH  070%=      5-min Rain = 0
KHA2 151354Z 32018KT 20/14 A2984 RMK A01 T01970140  RH  070%=      5-min Rain = 0
KHA2 151355Z 32018KT 20/14 A2984 RMK A01 T01970139  RH  069%=      5-min Rain = 0
KHA2 151356Z 32018KT 20/14 A2984 RMK A01 T01970139  RH  069%=      5-min Rain = 0
KHA2 151357Z 32017KT 20/14 A2984 RMK A01 T01970139  RH  069%=      5-min Rain = 0
KHA2 151358Z 32017KT 20/14 A2984 RMK A01 T01980140  RH  069%=      5-min Rain = 0
KHA2 151359Z 32018KT 20/14 A2984 RMK A01 T01990140  RH  069%=      5-min Rain = 0
KHA2 151400Z 32018KT 20/14 A2984 RMK A01 T02000141  RH  069%=      5-min Rain = 0
KHA2 151401Z 32020KT 20/14 A2984 RMK A01 T02010141  RH  068%=      5-min Rain = 0
KHA2 151402Z 32019KT 20/14 A2985 RMK A01 T02010140  RH  068%=      5-min Rain = 0
KHA2 151403Z 32018KT 20/14 A2984 RMK A01 T02010141  RH  068%=      5-min Rain = 0
KHA2 151404Z 31018KT 20/14 A2984 RMK A01 T02010141  RH  068%=      5-min Rain = 0
KHA2 151405Z 32015KT 20/14 A2985 RMK A01 T02020141  RH  068%=      5-min Rain = 0
KHA2 151406Z 32017KT 20/14 A2985 RMK A01 T02030142  RH  068%=      5-min Rain = 0
KHA2 151407Z 32017KT 20/14 A2985 RMK A01 T02030142  RH  068%=      5-min Rain = 0
KHA2 151408Z 32017KT 20/14 A2985 RMK A01 T02030142  RH  068%=      5-min Rain = 0
KHA2 151409Z 32016KT 20/14 A2985 RMK A01 T02030143  RH  068%=      5-min Rain = 0
KHA2 151410Z 32016KT 21/14 A2985 RMK A01 T02050144  RH  068%=      5-min Rain = 0
KHA2 151411Z 32017KT 21/14 A2985 RMK A01 T02060144  RH  068%=      5-min Rain = 0
KHA2 151412Z 33017KT 21/14 A2985 RMK A01 T02070144  RH  067%=      5-min Rain = 0
KHA2 151413Z 32017KT 21/14 A2985 RMK A01 T02080144  RH  067%=      5-min Rain = 0
KHA2 151414Z 32016KT 21/14 A2985 RMK A01 T02080144  RH  067%=      5-min Rain = 0
KHA2 151415Z 32016KT 21/15 A2985 RMK A01 T02080145  RH  067%=      5-min Rain = 0
KHA2 151416Z 33015KT 21/15 A2985 RMK A01 T02090145  RH  067%=      5-min Rain = 0
KHA2 151417Z 32015KT 21/15 A2985 RMK A01 T02100146  RH  067%=      5-min Rain = 0
KHA2 151418Z 32016KT 21/15 A2985 RMK A01 T02110146  RH  067%=      5-min Rain = 0
KHA2 151419Z 32016KT 21/15 A2985 RMK A01 T02120147  RH  067%=      5-min Rain = 0
KHA2 151420Z 32018KT 21/15 A2985 RMK A01 T02130148  RH  066%=      5-min Rain = 0
KHA2 151421Z 32018KT 21/15 A2985 RMK A01 T02140147  RH  066%=      5-min Rain = 0
KHA2 151422Z 32017KT 21/15 A2985 RMK A01 T02140147  RH  066%=      5-min Rain = 0
KHA2 151423Z 32017KT 21/15 A2985 RMK A01 T02140149  RH  067%=      5-min Rain = 0
KHA2 151424Z 32017KT 22/15 A2985 RMK A01 T02150148  RH  066%=      5-min Rain = 0
KHA2 151425Z 32016KT 22/15 A2985 RMK A01 T02150149  RH  066%=      5-min Rain = 0
KHA2 151426Z 32017KT 22/15 A2985 RMK A01 T02160150  RH  066%=      5-min Rain = 0
KHA2 151427Z 33019KT 22/15 A2985 RMK A01 T02180150  RH  065%=      5-min Rain = 0
KHA2 151428Z 33019KT 22/15 A2985 RMK A01 T02180150  RH  065%=      5-min Rain = 0
KHA2 151429Z 32019KT 22/15 A2985 RMK A01 T02190150  RH  065%=      5-min Rain = 0
KHA2 151430Z 32020KT 22/15 A2985 RMK A01 T02200150  RH  064%=      5-min Rain = 0
KHA2 151431Z 33019KT 22/15 A2985 RMK A01 T02190150  RH  065%=      5-min Rain = 0
KHA2 151432Z 33019KT 22/15 A2985 RMK A01 T02190150  RH  065%=      5-min Rain = 0
KHA2 151433Z 34020KT 22/15 A2985 RMK A01 T02200150  RH  065%=      5-min Rain = 0
KHA2 151434Z 33020KT 22/15 A2985 RMK A01 T02190151  RH  065%=      5-min Rain = 0
KHA2 151435Z 33018KT 22/15 A2985 RMK A01 T02200151  RH  065%=      5-min Rain = 0
KHA2 151436Z 33018KT 22/15 A2985 RMK A01 T02210151  RH  065%=      5-min Rain = 0
KHA2 151437Z 33018KT 22/15 A2985 RMK A01 T02210151  RH  064%=      5-min Rain = 0
KHA2 151438Z 34019KT 22/15 A2985 RMK A01 T02210151  RH  064%=      5-min Rain = 0
KHA2 151439Z 33019KT 22/15 A2985 RMK A01 T02220151  RH  064%=      5-min Rain = 0
KHA2 151440Z 33019KT 22/15 A2985 RMK A01 T02210151  RH  064%=      5-min Rain = 0
KHA2 151441Z 32018KT 22/15 A2985 RMK A01 T02210152  RH  065%=      5-min Rain = 0
KHA2 151442Z 32019KT 22/15 A2985 RMK A01 T02220152  RH  065%=      5-min Rain = 0
KHA2 151443Z 32016KT 22/15 A2985 RMK A01 T02220153  RH  065%=      5-min Rain = 0
KHA2 151444Z 33018KT 23/15 A2985 RMK A01 T02250153  RH  064%=      5-min Rain = 0
KHA2 151445Z 33018KT 23/15 A2985 RMK A01 T02250153  RH  064%=      5-min Rain = 0
KHA2 151446Z 33019KT 23/15 A2985 RMK A01 T02250152  RH  063%=      5-min Rain = 0
KHA2 151447Z 32017KT 22/15 A2986 RMK A01 T02230152  RH  064%=      5-min Rain = 0
KHA2 151448Z 32017KT 22/15 A2986 RMK A01 T02240154  RH  064%=      5-min Rain = 0
KHA2 151449Z 32018KT 23/15 A2985 RMK A01 T02260154  RH  064%=      5-min Rain = 0
KHA2 151450Z 33017KT 23/15 A2985 RMK A01 T02270153  RH  063%=      5-min Rain = 0
KHA2 151451Z 33015KT 23/15 A2986 RMK A01 T02270154  RH  064%=      5-min Rain = 0
KHA2 151452Z 33017KT 23/16 A2986 RMK A01 T02270155  RH  064%=      5-min Rain = 0
KHA2 151453Z 33016G21KT 23/16 A2986 RMK A01 T02310157  RH  063%=      5-min Rain = 0
KHA2 151454Z 34019KT 23/16 A2986 RMK A01 T02320156  RH  062%=      5-min Rain = 0
KHA2 151455Z 33019KT 23/16 A2986 RMK A01 T02310155  RH  063%=      5-min Rain = 0
KHA2 151456Z 33017KT 23/16 A2986 RMK A01 T02300156  RH  063%=      5-min Rain = 0
KHA2 151457Z 33016KT 23/16 A2986 RMK A01 T02300157  RH  063%=      5-min Rain = 0
KHA2 151458Z 34020KT 23/16 A2986 RMK A01 T02310156  RH  063%=      5-min Rain = 0
KHA2 151459Z 33020KT 23/16 A2986 RMK A01 T02290156  RH  063%=      5-min Rain = 0
KHA2 151500Z 33019KT 23/16 A2986 RMK A01 T02280155  RH  064%=      5-min Rain = 0
KHA2 151501Z 33020KT 23/16 A2986 RMK A01 T02280155  RH  064%=      5-min Rain = 0
KHA2 151502Z 33021KT 23/16 A2986 RMK A01 T02280156  RH  064%=      5-min Rain = 0
KHA2 151503Z 33019KT 23/16 A2986 RMK A01 T02290157  RH  064%=      5-min Rain = 0
KHA2 151504Z 33020KT 23/16 A2986 RMK A01 T02310158  RH  063%=      5-min Rain = 0
KHA2 151505Z 33019KT 23/16 A2986 RMK A01 T02320157  RH  063%=      5-min Rain = 0
KHA2 151506Z 33019KT 23/16 A2987 RMK A01 T02300156  RH  063%=      5-min Rain = 0
KHA2 151507Z 33019KT 23/16 A2987 RMK A01 T02290157  RH  064%=      5-min Rain = 0
KHA2 151508Z 33019KT 23/16 A2987 RMK A01 T02300158  RH  064%=      5-min Rain = 0
KHA2 151509Z 33018KT 23/16 A2987 RMK A01 T02310158  RH  063%=      5-min Rain = 0
KHA2 151510Z 33020KT 23/16 A2987 RMK A01 T02320158  RH  063%=      5-min Rain = 0
KHA2 151511Z 33018KT 23/16 A2987 RMK A01 T02330158  RH  063%=      5-min Rain = 0
KHA2 151512Z 33019KT 23/16 A2987 RMK A01 T02340158  RH  062%=      5-min Rain = 0
KHA2 151513Z 33018KT 23/16 A2987 RMK A01 T02340158  RH  062%=      5-min Rain = 0
KHA2 151514Z 34018KT 24/16 A2987 RMK A01 T02350159  RH  062%=      5-min Rain = 0
KHA2 151515Z 33017KT 24/16 A2987 RMK A01 T02360159  RH  062%=      5-min Rain = 0
KHA2 151516Z 34016G21KT 24/16 A2987 RMK A01 T02380160  RH  062%=      5-min Rain = 0
KHA2 151517Z 34018KT 24/16 A2987 RMK A01 T02400161  RH  061%=      5-min Rain = 0
KHA2 151518Z 34018KT 24/16 A2987 RMK A01 T02400160  RH  061%=      5-min Rain = 0
KHA2 151519Z 34018KT 24/16 A2988 RMK A01 T02390159  RH  061%=      5-min Rain = 0
KHA2 151520Z 33020KT 24/16 A2988 RMK A01 T02380158  RH  061%=      5-min Rain = 0
KHA2 151521Z 33019KT 24/16 A2988 RMK A01 T02380158  RH  061%=      5-min Rain = 0
KHA2 151522Z 33019KT 24/16 A2988 RMK A01 T02370157  RH  061%=      5-min Rain = 0
KHA2 151523Z 34017KT 24/16 A2988 RMK A01 T02370157  RH  061%=      5-min Rain = 0
KHA2 151524Z 34018G23KT 24/16 A2988 RMK A01 T02380158  RH  061%=      5-min Rain = 0
KHA2 151525Z 33019KT 24/16 A2988 RMK A01 T02380158  RH  061%=      5-min Rain = 0
KHA2 151526Z 34019KT 24/16 A2988 RMK A01 T02370157  RH  061%=      5-min Rain = 0
KHA2 151527Z 33017KT 24/16 A2988 RMK A01 T02360157  RH  061%=      5-min Rain = 0
KHA2 151528Z 34016KT 24/16 A2988 RMK A01 T02370158  RH  061%=      5-min Rain = 0
KHA2 151529Z 33017KT 24/16 A2988 RMK A01 T02390158  RH  060%=      5-min Rain = 0
KHA2 151530Z 34016KT 24/16 A2988 RMK A01 T02400157  RH  060%=      5-min Rain = 0
KHA2 151531Z 33017KT 24/16 A2989 RMK A01 T02400158  RH  060%=      5-min Rain = 0
KHA2 151532Z 34016KT 24/16 A2989 RMK A01 T02380157  RH  060%=      5-min Rain = 0
KHA2 151533Z 33015KT 24/16 A2989 RMK A01 T02390158  RH  061%=      5-min Rain = 0
KHA2 151534Z 33017KT 24/16 A2989 RMK A01 T02410158  RH  060%=      5-min Rain = 0
KHA2 151535Z 33018KT 24/16 A2989 RMK A01 T02410157  RH  060%=      5-min Rain = 0
KHA2 151536Z 34017KT 24/16 A2989 RMK A01 T02390157  RH  060%=      5-min Rain = 0
KHA2 151537Z 33017KT 24/16 A2989 RMK A01 T02390157  RH  060%=      5-min Rain = 0
KHA2 151538Z 33017KT 24/16 A2989 RMK A01 T02400157  RH  060%=      5-min Rain = 0
KHA2 151539Z 33016KT 24/16 A2989 RMK A01 T02390157  RH  060%=      5-min Rain = 0
KHA2 151540Z 34013KT 24/16 A2989 RMK A01 T02400159  RH  060%=      5-min Rain = 0
KHA2 151541Z 34014KT 25/16 A2989 RMK A01 T02450160  RH  059%=      5-min Rain = 0
KHA2 151542Z 34017KT 25/16 A2989 RMK A01 T02480159  RH  058%=      5-min Rain = 0
KHA2 151543Z 34017KT 25/16 A2989 RMK A01 T02480159  RH  058%=      5-min Rain = 0
KHA2 151544Z 34013KT 25/16 A2989 RMK A01 T02460158  RH  058%=      5-min Rain = 0
KHA2 151545Z 34015KT 24/16 A2989 RMK A01 T02440158  RH  059%=      5-min Rain = 0
KHA2 151546Z 33014KT 24/16 A2989 RMK A01 T02440159  RH  059%=      5-min Rain = 0
KHA2 151547Z 33015KT 25/16 A2989 RMK A01 T02470159  RH  058%=      5-min Rain = 0
KHA2 151548Z 33015KT 25/16 A2989 RMK A01 T02470159  RH  058%=      5-min Rain = 0
KHA2 151549Z 33013KT 25/16 A2989 RMK A01 T02480159  RH  058%=      5-min Rain = 0
KHA2 151550Z 32015KT 25/16 A2989 RMK A01 T02480160  RH  058%=      5-min Rain = 0
KHA2 151551Z 33015KT 25/16 A2989 RMK A01 T02480161  RH  058%=      5-min Rain = 0
KHA2 151552Z 36015KT 25/16 A2989 RMK A01 T02520160  RH  057%=      5-min Rain = 0
KHA2 151553Z 33015KT 25/16 A2989 RMK A01 T02530160  RH  057%=      5-min Rain = 0
KHA2 151554Z 34015KT 25/16 A2989 RMK A01 T02510159  RH  056%=      5-min Rain = 0
KHA2 151555Z 34015KT 25/16 A2989 RMK A01 T02500160  RH  057%=      5-min Rain = 0
KHA2 151556Z 34015KT 25/16 A2989 RMK A01 T02500158  RH  057%=      5-min Rain = 0
KHA2 151557Z 34014KT 25/16 A299 RMK A01 T02510160  RH  057%=      5-min Rain = 0
KHA2 151558Z 34016KT 25/16 A299 RMK A01 T02530159  RH  056%=      5-min Rain = 0
KHA2 151559Z 33014KT 25/16 A299 RMK A01 T02510157  RH  056%=      5-min Rain = 0
KHA2 151600Z 34016KT 25/16 A2989 RMK A01 T02500157  RH  056%=      5-min Rain = 0
KHA2 151601Z 35016KT 25/16 A2989 RMK A01 T02490158  RH  057%=      5-min Rain = 0
KHA2 151602Z 34014KT 25/16 A2989 RMK A01 T02510157  RH  056%=      5-min Rain = 0
KHA2 151603Z 33014KT 25/16 A2989 RMK A01 T02520159  RH  056%=      5-min Rain = 0
KHA2 151604Z 33017KT 25/16 A2989 RMK A01 T02520158  RH  056%=      5-min Rain = 0
KHA2 151605Z 34016KT 25/16 A2989 RMK A01 T02540159  RH  055%=      5-min Rain = 0
KHA2 151606Z 33015KT 26/16 A2989 RMK A01 T02550158  RH  055%=      5-min Rain = 0
KHA2 151607Z 34016KT 25/16 A2989 RMK A01 T02540158  RH  055%=      5-min Rain = 0
KHA2 151608Z 34019KT 26/16 A2989 RMK A01 T02570158  RH  054%=      5-min Rain = 0
KHA2 151609Z 35015KT 26/16 A2989 RMK A01 T02580159  RH  054%=      5-min Rain = 0
KHA2 151610Z 34014KT 26/16 A2989 RMK A01 T02590158  RH  054%=      5-min Rain = 0
KHA2 151611Z 34015KT 26/16 A2989 RMK A01 T02560156  RH  054%=      5-min Rain = 0
KHA2 151612Z 34018KT 26/16 A2989 RMK A01 T02550157  RH  055%=      5-min Rain = 0
KHA2 151613Z 35014KT 26/16 A2989 RMK A01 T02560155  RH  054%=      5-min Rain = 0
KHA2 151614Z 35016KT 26/16 A2989 RMK A01 T02550158  RH  055%=      5-min Rain = 0
KHA2 151615Z 35014KT 26/16 A2989 RMK A01 T02590159  RH  054%=      5-min Rain = 0
KHA2 151616Z 35016KT 26/16 A2989 RMK A01 T02600155  RH  052%=      5-min Rain = 0
KHA2 151617Z 34015KT 26/15 A2989 RMK A01 T02580152  RH  052%=      5-min Rain = 0
KHA2 151618Z 34016KT 26/16 A2989 RMK A01 T02580158  RH  054%=      5-min Rain = 0
KHA2 151619Z 35013KT 26/16 A2989 RMK A01 T02600157  RH  053%=      5-min Rain = 0
KHA2 151620Z 35015KT 26/16 A2989 RMK A01 T02590157  RH  053%=      5-min Rain = 0
KHA2 151621Z 34017KT 26/16 A2989 RMK A01 T02590155  RH  053%=      5-min Rain = 0
KHA2 151622Z 36015KT 26/16 A2989 RMK A01 T02620155  RH  052%=      5-min Rain = 0
KHA2 151623Z 35014KT 26/16 A2989 RMK A01 T02600156  RH  052%=      5-min Rain = 0
KHA2 151624Z 35012G19KT 26/16 A2989 RMK A01 T02600155  RH  052%=      5-min Rain = 0
KHA2 151625Z 35015KT 26/16 A2989 RMK A01 T02640156  RH  051%=      5-min Rain = 0
KHA2 151626Z 36016KT 27/15 A2989 RMK A01 T02650154  RH  050%=      5-min Rain = 0
KHA2 151627Z 36017KT 26/16 A2989 RMK A01 T02630155  RH  051%=      5-min Rain = 0
KHA2 151628Z 00016KT 26/15 A2989 RMK A01 T02620151  RH  050%=      5-min Rain = 0
KHA2 151629Z 00013KT 26/15 A2989 RMK A01 T02600151  RH  051%=      5-min Rain = 0
KHA2 151630Z 35017KT 26/15 A2989 RMK A01 T02600154  RH  052%=      5-min Rain = 0
KHA2 151631Z 36013KT 26/15 A2989 RMK A01 T02630153  RH  051%=      5-min Rain = 0
KHA2 151632Z 35016KT 26/16 A2989 RMK A01 T02630157  RH  052%=      5-min Rain = 0
KHA2 151633Z 36016KT 27/15 A2989 RMK A01 T02670153  RH  050%=      5-min Rain = 0
KHA2 151634Z 36016KT 27/15 A2989 RMK A01 T02660154  RH  050%=      5-min Rain = 0
KHA2 151635Z 36016KT 27/15 A2989 RMK A01 T02650152  RH  050%=      5-min Rain = 0
KHA2 151636Z 35016KT 26/15 A299 RMK A01 T02640150  RH  049%=      5-min Rain = 0
KHA2 151637Z 35013KT 26/15 A299 RMK A01 T02620152  RH  051%=      5-min Rain = 0
KHA2 151638Z 35012KT 26/16 A299 RMK A01 T02630155  RH  051%=      5-min Rain = 0
KHA2 151639Z 35016KT 27/16 A299 RMK A01 T02660156  RH  051%=      5-min Rain = 0
KHA2 151640Z 00016KT 27/15 A299 RMK A01 T02670153  RH  049%=      5-min Rain = 0
KHA2 151641Z 01013KT 26/15 A299 RMK A01 T02640152  RH  050%=      5-min Rain = 0
KHA2 151642Z 35017KT 26/15 A2989 RMK A01 T02620154  RH  051%=      5-min Rain = 0
KHA2 151643Z 36015KT 26/15 A299 RMK A01 T02640153  RH  051%=      5-min Rain = 0
KHA2 151644Z 35014G19KT 26/15 A299 RMK A01 T02640152  RH  050%=      5-min Rain = 0
KHA2 151645Z 34016KT 26/15 A2989 RMK A01 T02640154  RH  051%=      5-min Rain = 0
KHA2 151646Z 35016KT 26/16 A2989 RMK A01 T02640156  RH  051%=      5-min Rain = 0
KHA2 151647Z 34016KT 26/16 A2989 RMK A01 T02640156  RH  051%=      5-min Rain = 0
KHA2 151648Z 36015KT 27/16 A2989 RMK A01 T02650157  RH  051%=      5-min Rain = 0
KHA2 151649Z 01015KT 27/16 A2989 RMK A01 T02660158  RH  052%=      5-min Rain = 0
KHA2 151650Z 01013KT 26/16 A2989 RMK A01 T02640156  RH  051%=      5-min Rain = 0
KHA2 151651Z 36016KT 26/16 A2989 RMK A01 T02630158  RH  053%=      5-min Rain = 0
KHA2 151652Z 35014KT 26/16 A2989 RMK A01 T02630157  RH  052%=      5-min Rain = 0
KHA2 151653Z 35017KT 26/16 A2989 RMK A01 T02640158  RH  052%=      5-min Rain = 0
KHA2 151654Z 36015KT 27/16 A2989 RMK A01 T02660158  RH  052%=      5-min Rain = 0
KHA2 151655Z 01015G20KT 27/16 A2989 RMK A01 T02680159  RH  051%=      5-min Rain = 0
KHA2 151656Z 36015KT 27/16 A2989 RMK A01 T02710161  RH  051%=      5-min Rain = 0
KHA2 151657Z 01014KT 27/16 A2989 RMK A01 T02700161  RH  051%=      5-min Rain = 0
KHA2 151658Z 01017KT 27/16 A2989 RMK A01 T02680161  RH  052%=      5-min Rain = 0
KHA2 151659Z 36016KT 27/16 A2989 RMK A01 T02680159  RH  051%=      5-min Rain = 0
KHA2 151700Z 01016KT 27/16 A2989 RMK A01 T02690160  RH  051%=      5-min Rain = 0
KHA2 151701Z 00016KT 27/16 A2989 RMK A01 T02690162  RH  052%=      5-min Rain = 0
KHA2 151702Z 01017KT 27/16 A2988 RMK A01 T02700161  RH  051%=      5-min Rain = 0
KHA2 151703Z 01014KT 27/16 A2988 RMK A01 T02700163  RH  052%=      5-min Rain = 0
KHA2 151704Z 02017KT 27/16 A2988 RMK A01 T02700162  RH  052%=      5-min Rain = 0
KHA2 151705Z 03014KT 27/16 A2989 RMK A01 T02700158  RH  050%=      5-min Rain = 0
KHA2 151706Z 01016KT 27/16 A2988 RMK A01 T02690162  RH  052%=      5-min Rain = 0
KHA2 151707Z 02013KT 27/16 A2988 RMK A01 T02680162  RH  052%=      5-min Rain = 0
KHA2 151708Z 01016KT 27/16 A2988 RMK A01 T02680163  RH  052%=      5-min Rain = 0
KHA2 151709Z 01015KT 27/16 A2988 RMK A01 T02690157  RH  050%=      5-min Rain = 0
KHA2 151710Z 01012KT 27/16 A2988 RMK A01 T02700159  RH  051%=      5-min Rain = 0
KHA2 151711Z 00015G20KT 27/16 A2988 RMK A01 T02720161  RH  050%=      5-min Rain = 0
KHA2 151712Z 01013KT 28/16 A2988 RMK A01 T02760160  RH  049%=      5-min Rain = 0
KHA2 151713Z 01014KT 28/16 A2989 RMK A01 T02770162  RH  050%=      5-min Rain = 0
KHA2 151714Z 02013KT 27/16 A2989 RMK A01 T02740163  RH  051%=      5-min Rain = 0
KHA2 151715Z 01013KT 27/16 A2989 RMK A01 T02730164  RH  052%=      5-min Rain = 0
KHA2 151716Z 36015KT 27/16 A2989 RMK A01 T02710163  RH  051%=      5-min Rain = 0
KHA2 151717Z 36016KT 27/16 A2989 RMK A01 T02740162  RH  050%=      5-min Rain = 0
KHA2 151718Z 36016KT 28/16 A2989 RMK A01 T02770159  RH  049%=      5-min Rain = 0
KHA2 151719Z 01014KT 28/16 A2989 RMK A01 T02760162  RH  050%=      5-min Rain = 0
KHA2 151720Z 00012KT 27/16 A2989 RMK A01 T02740161  RH  050%=      5-min Rain = 0
KHA2 151721Z 01013KT 27/17 A2989 RMK A01 T02720165  RH  052%=      5-min Rain = 0
KHA2 151722Z 36015G21KT 28/17 A2989 RMK A01 T02760165  RH  051%=      5-min Rain = 0
KHA2 151723Z 00015KT 28/16 A2989 RMK A01 T02790164  RH  050%=      5-min Rain = 0
KHA2 151724Z 35011KT 28/16 A2989 RMK A01 T02780163  RH  050%=      5-min Rain = 0
KHA2 151725Z 00010KT 28/16 A2989 RMK A01 T02770163  RH  050%=      5-min Rain = 0
KHA2 151726Z 02012KT 28/16 A2989 RMK A01 T02790164  RH  050%=      5-min Rain = 0
KHA2 151727Z 02012KT 28/16 A299 RMK A01 T02800163  RH  049%=      5-min Rain = 0
KHA2 151728Z 02014KT 28/16 A299 RMK A01 T02800161  RH  048%=      5-min Rain = 0
KHA2 151729Z 02010KT 28/16 A299 RMK A01 T02790161  RH  049%=      5-min Rain = 0
KHA2 151730Z 35012KT 28/16 A299 RMK A01 T02780162  RH  049%=      5-min Rain = 0
KHA2 151731Z 36013KT 28/16 A299 RMK A01 T02820164  RH  049%=      5-min Rain = 0
KHA2 151732Z 02012KT 28/16 A299 RMK A01 T02820164  RH  049%=      5-min Rain = 0
KHA2 151733Z 01014KT 28/16 A299 RMK A01 T02780164  RH  050%=      5-min Rain = 0
KHA2 151734Z 36016KT 28/16 A299 RMK A01 T02800162  RH  049%=      5-min Rain = 0
KHA2 151735Z 34012KT 28/16 A299 RMK A01 T02800160  RH  048%=      5-min Rain = 0
KHA2 151736Z 36012G17KT 28/16 A299 RMK A01 T02790161  RH  049%=      5-min Rain = 0
KHA2 151737Z 01013G18KT 28/16 A299 RMK A01 T02800163  RH  049%=      5-min Rain = 0
KHA2 151738Z 01010KT 28/16 A299 RMK A01 T02810164  RH  049%=      5-min Rain = 0
KHA2 151739Z 00011KT 28/17 A299 RMK A01 T02790165  RH  050%=      5-min Rain = 0
KHA2 151740Z 00013KT 28/17 A299 RMK A01 T02800168  RH  050%=      5-min Rain = 0
KHA2 151741Z 01014KT 28/17 A299 RMK A01 T02840166  RH  049%=      5-min Rain = 0
KHA2 151742Z 00015KT 28/17 A2989 RMK A01 T02830166  RH  049%=      5-min Rain = 0
KHA2 151743Z 36013KT 28/16 A2989 RMK A01 T02810164  RH  049%=      5-min Rain = 0
KHA2 151744Z 03011KT 28/17 A2989 RMK A01 T02810169  RH  050%=      5-min Rain = 0
KHA2 151745Z 02014KT 28/17 A2989 RMK A01 T02840166  RH  049%=      5-min Rain = 0
KHA2 151746Z 02014KT 29/17 A2989 RMK A01 T02850166  RH  048%=      5-min Rain = 0
KHA2 151747Z 02014KT 28/16 A2989 RMK A01 T02820164  RH  049%=      5-min Rain = 0
KHA2 151748Z 02015KT 28/16 A2989 RMK A01 T02800164  RH  049%=      5-min Rain = 0
KHA2 151749Z 02012KT 28/16 A299 RMK A01 T02790163  RH  049%=      5-min Rain = 0
KHA2 151750Z 02012KT 28/17 A299 RMK A01 T02800167  RH  050%=      5-min Rain = 0
KHA2 151751Z 35012KT 28/17 A299 RMK A01 T02810165  RH  049%=      5-min Rain = 0
KHA2 151752Z 01012KT 28/16 A299 RMK A01 T02830163  RH  048%=      5-min Rain = 0
KHA2 151753Z 01010KT 28/17 A299 RMK A01 T02810166  RH  050%=      5-min Rain = 0
KHA2 151754Z 02014KT 28/17 A2989 RMK A01 T02810168  RH  050%=      5-min Rain = 0
KHA2 151755Z 00013KT 28/17 A299 RMK A01 T02810166  RH  049%=      5-min Rain = 0
KHA2 151756Z 00013KT 28/17 A299 RMK A01 T02810166  RH  050%=      5-min Rain = 0
KHA2 151757Z 01016KT 28/16 A2989 RMK A01 T02820164  RH  049%=      5-min Rain = 0
KHA2 151758Z 01014KT 28/16 A299 RMK A01 T02820162  RH  048%=      5-min Rain = 0
KHA2 151759Z 36013KT 28/16 A299 RMK A01 T02820162  RH  048%=      5-min Rain = 0
KHA2 151800Z 00012KT 28/16 A299 RMK A01 T02820161  RH  048%=      5-min Rain = 0
KHA2 151801Z 01011KT 28/16 A299 RMK A01 T02820160  RH  048%=      5-min Rain = 0
KHA2 151802Z 00009KT 28/16 A299 RMK A01 T02810160  RH  048%=      5-min Rain = 0
KHA2 151803Z 01008KT 28/16 A299 RMK A01 T02790157  RH  047%=      5-min Rain = 0
KHA2 151804Z 02008KT 28/16 A299 RMK A01 T02780156  RH  047%=      5-min Rain = 0
KHA2 151805Z 00010KT 28/16 A299 RMK A01 T02790161  RH  049%=      5-min Rain = 0
KHA2 151806Z 01011KT 28/17 A299 RMK A01 T02820166  RH  049%=      5-min Rain = 0
KHA2 151807Z 01013KT 28/16 A299 RMK A01 T02840163  RH  048%=      5-min Rain = 0
KHA2 151808Z 02010G15KT 29/16 A299 RMK A01 T02850162  RH  047%=      5-min Rain = 0
KHA2 151809Z 35010KT 28/16 A299 RMK A01 T02820163  RH  048%=      5-min Rain = 0
KHA2 151810Z 35011KT 29/16 A2991 RMK A01 T02850160  RH  047%=      5-min Rain = 0
KHA2 151811Z 35009KT 29/16 A2991 RMK A01 T02850160  RH  047%=      5-min Rain = 0
KHA2 151812Z 35011KT 29/16 A2991 RMK A01 T02850164  RH  048%=      5-min Rain = 0
KHA2 151813Z 02013KT 29/16 A299 RMK A01 T02850164  RH  048%=      5-min Rain = 0
KHA2 151814Z 02011KT 29/16 A2991 RMK A01 T02850163  RH  048%=      5-min Rain = 0
KHA2 151815Z 36012KT 28/16 A299 RMK A01 T02840161  RH  047%=      5-min Rain = 0
KHA2 151816Z 00010KT 29/16 A299 RMK A01 T02850159  RH  047%=      5-min Rain = 0
KHA2 151817Z 00010KT 29/16 A299 RMK A01 T02850159  RH  046%=      5-min Rain = 0
KHA2 151818Z 01007KT 28/16 A299 RMK A01 T02840158  RH  046%=      5-min Rain = 0
KHA2 151819Z 35008G14KT 28/16 A299 RMK A01 T02820161  RH  048%=      5-min Rain = 0
KHA2 151820Z 34012KT 28/16 A299 RMK A01 T02840163  RH  048%=      5-min Rain = 0
KHA2 151821Z 34013KT 29/16 A299 RMK A01 T02900162  RH  046%=      5-min Rain = 0
KHA2 151822Z 36012KT 30/16 A299 RMK A01 T02950162  RH  044%=      5-min Rain = 0
KHA2 151823Z 35013KT 30/16 A299 RMK A01 T02950164  RH  045%=      5-min Rain = 0
KHA2 151824Z 35010KT 29/17 A299 RMK A01 T02930166  RH  047%=      5-min Rain = 0
KHA2 151825Z 35010KT 29/17 A299 RMK A01 T02910165  RH  047%=      5-min Rain = 0
KHA2 151826Z 01007KT 29/17 A299 RMK A01 T02880167  RH  048%=      5-min Rain = 0
KHA2 151827Z 00014KT 29/17 A299 RMK A01 T02870166  RH  048%=      5-min Rain = 0
KHA2 151828Z 01013KT 29/16 A299 RMK A01 T02870163  RH  047%=      5-min Rain = 0
KHA2 151829Z 36010KT 29/16 A299 RMK A01 T02860164  RH  048%=      5-min Rain = 0
KHA2 151830Z 36012KT 29/17 A299 RMK A01 T02900165  RH  047%=      5-min Rain = 0
KHA2 151831Z 34010G16KT 29/17 A299 RMK A01 T02930165  RH  046%=      5-min Rain = 0
KHA2 151832Z 35010G15KT 29/16 A299 RMK A01 T02920164  RH  046%=      5-min Rain = 0
KHA2 151833Z 01014KT 29/17 A299 RMK A01 T02910167  RH  047%=      5-min Rain = 0
KHA2 151834Z 02013KT 29/17 A299 RMK A01 T02920171  RH  048%=      5-min Rain = 0
KHA2 151835Z 01012KT 29/17 A299 RMK A01 T02930169  RH  047%=      5-min Rain = 0
KHA2 151836Z 01009KT 29/17 A299 RMK A01 T02910169  RH  048%=      5-min Rain = 0
KHA2 151837Z 35008KT 29/17 A299 RMK A01 T02910165  RH  047%=      5-min Rain = 0
KHA2 151838Z 01010KT 29/17 A299 RMK A01 T02890167  RH  048%=      5-min Rain = 0
KHA2 151839Z 36011KT 29/17 A299 RMK A01 T02900172  RH  049%=      5-min Rain = 0
KHA2 151840Z 01010KT 30/17 A299 RMK A01 T02950174  RH  048%=      5-min Rain = 0
KHA2 151841Z 36012KT 30/17 A299 RMK A01 T02990172  RH  046%=      5-min Rain = 0
KHA2 151842Z 01010KT 30/17 A299 RMK A01 T02980171  RH  046%=      5-min Rain = 0
KHA2 151843Z 36014KT 30/17 A299 RMK A01 T02980171  RH  046%=      5-min Rain = 0
KHA2 151844Z 00012KT 30/17 A299 RMK A01 T02980169  RH  046%=      5-min Rain = 0
KHA2 151845Z 36011KT 30/17 A299 RMK A01 T02970168  RH  046%=      5-min Rain = 0
KHA2 151846Z 01010KT 30/17 A299 RMK A01 T02980170  RH  046%=      5-min Rain = 0
KHA2 151847Z 02010KT 30/17 A2989 RMK A01 T02970166  RH  045%=      5-min Rain = 0
KHA2 151848Z 03012KT 29/17 A2989 RMK A01 T02920165  RH  046%=      5-min Rain = 0
KHA2 151849Z 01010KT 29/17 A2989 RMK A01 T02900168  RH  048%=      5-min Rain = 0
KHA2 151850Z 00008KT 29/17 A2989 RMK A01 T02900171  RH  048%=      5-min Rain = 0
KHA2 151851Z 36012KT 29/17 A2989 RMK A01 T02930172  RH  048%=      5-min Rain = 0
KHA2 151852Z 00011KT 30/17 A2989 RMK A01 T02950172  RH  048%=      5-min Rain = 0
KHA2 151853Z 02013KT 30/17 A2989 RMK A01 T02970173  RH  047%=      5-min Rain = 0
KHA2 151854Z 02012KT 30/18 A2989 RMK A01 T02970175  RH  048%=      5-min Rain = 0
KHA2 151855Z 00010KT 30/17 A2989 RMK A01 T02980171  RH  047%=      5-min Rain = 0
KHA2 151856Z 01012KT 30/17 A2989 RMK A01 T02970172  RH  047%=      5-min Rain = 0
KHA2 151857Z 01009KT 30/17 A2989 RMK A01 T02980173  RH  047%=      5-min Rain = 0
KHA2 151858Z 01011KT 30/17 A2989 RMK A01 T03000171  RH  046%=      5-min Rain = 0
KHA2 151859Z 01009KT 30/17 A2989 RMK A01 T03000167  RH  045%=      5-min Rain = 0
KHA2 151900Z 00007KT 30/17 A2989 RMK A01 T02970170  RH  046%=      5-min Rain = 0
KHA2 151901Z 02012G19KT 30/17 A2989 RMK A01 T02960173  RH  048%=      5-min Rain = 0
KHA2 151902Z 36013KT 30/17 A2989 RMK A01 T02990174  RH  047%=      5-min Rain = 0
KHA2 151903Z 01013KT 30/17 A2989 RMK A01 T03040174  RH  046%=      5-min Rain = 0
KHA2 151904Z 00013KT 30/17 A2989 RMK A01 T03040172  RH  045%=      5-min Rain = 0
KHA2 151905Z 01012KT 30/17 A2989 RMK A01 T03000171  RH  046%=      5-min Rain = 0
KHA2 151906Z 02010KT 30/17 A2989 RMK A01 T02970171  RH  047%=      5-min Rain = 0
KHA2 151907Z 00012KT 30/17 A2989 RMK A01 T02960172  RH  047%=      5-min Rain = 0
KHA2 151908Z 36010KT 30/17 A2989 RMK A01 T02950168  RH  046%=      5-min Rain = 0
KHA2 151909Z 01013KT 30/17 A2989 RMK A01 T02960172  RH  047%=      5-min Rain = 0
KHA2 151910Z 02011KT 30/17 A2989 RMK A01 T02970168  RH  046%=      5-min Rain = 0
KHA2 151911Z 01009KT 29/17 A2989 RMK A01 T02940167  RH  046%=      5-min Rain = 0
KHA2 151912Z 36013KT 29/17 A2989 RMK A01 T02940171  RH  048%=      5-min Rain = 0
KHA2 151913Z 35008KT 30/17 A2989 RMK A01 T02950173  RH  048%=      5-min Rain = 0
KHA2 151914Z 00011KT 29/18 A2989 RMK A01 T02940175  RH  049%=      5-min Rain = 0
KHA2 151915Z 36011KT 30/17 A2989 RMK A01 T02960174  RH  048%=      5-min Rain = 0
KHA2 151916Z 00014KT 30/17 A2989 RMK A01 T02980173  RH  047%=      5-min Rain = 0
KHA2 151917Z 35014KT 30/17 A2989 RMK A01 T02990168  RH  045%=      5-min Rain = 0
KHA2 151918Z 35015KT 30/17 A2989 RMK A01 T03010172  RH  046%=      5-min Rain = 0
KHA2 151919Z 34013KT 31/17 A2989 RMK A01 T03050172  RH  045%=      5-min Rain = 0
KHA2 151920Z 34010KT 30/17 A2989 RMK A01 T03040171  RH  045%=      5-min Rain = 0
KHA2 151921Z 35013G20KT 30/17 A2989 RMK A01 T03010172  RH  046%=      5-min Rain = 0
KHA2 151922Z 02014KT 31/18 A2989 RMK A01 T03050178  RH  047%=      5-min Rain = 0
KHA2 151923Z 01015KT 31/18 A2989 RMK A01 T03060175  RH  045%=      5-min Rain = 0
KHA2 151924Z 01014G19KT 31/17 A2989 RMK A01 T03060174  RH  045%=      5-min Rain = 0
KHA2 151925Z 02012KT 30/17 A2989 RMK A01 T03020169  RH  045%=      5-min Rain = 0
KHA2 151926Z 00012KT 30/17 A2989 RMK A01 T02950172  RH  047%=      5-min Rain = 0
KHA2 151927Z 00011KT 30/17 A2989 RMK A01 T02960171  RH  047%=      5-min Rain = 0
KHA2 151928Z 00011KT 30/17 A2989 RMK A01 T02950171  RH  047%=      5-min Rain = 0
KHA2 151929Z 36010KT 30/17 A2989 RMK A01 T02960172  RH  047%=      5-min Rain = 0
KHA2 151930Z 35012KT 30/17 A2989 RMK A01 T03000171  RH  046%=      5-min Rain = 0
KHA2 151931Z 35015KT 30/17 A2989 RMK A01 T03030168  RH  044%=      5-min Rain = 0
KHA2 151932Z 35012KT 30/17 A2989 RMK A01 T03020168  RH  044%=      5-min Rain = 0
KHA2 151933Z 35010KT 30/17 A2989 RMK A01 T03010169  RH  045%=      5-min Rain = 0
KHA2 151934Z 00009KT 30/17 A2989 RMK A01 T03040168  RH  044%=      5-min Rain = 0
KHA2 151935Z 01012G17KT 31/17 A2989 RMK A01 T03050171  RH  044%=      5-min Rain = 0
KHA2 151936Z 01013KT 30/17 A2989 RMK A01 T03040171  RH  045%=      5-min Rain = 0
KHA2 151937Z 02013KT 30/17 A2989 RMK A01 T03020168  RH  045%=      5-min Rain = 0
KHA2 151938Z 36013KT 30/17 A2989 RMK A01 T02990166  RH  045%=      5-min Rain = 0
KHA2 151939Z 36012KT 30/17 A2989 RMK A01 T03000165  RH  044%=      5-min Rain = 0
KHA2 151940Z 02010KT 30/17 A2989 RMK A01 T03010167  RH  044%=      5-min Rain = 0
KHA2 151941Z 02008G13KT 30/17 A2989 RMK A01 T02990166  RH  045%=      5-min Rain = 0
KHA2 151942Z 01013KT 30/17 A2989 RMK A01 T02970173  RH  047%=      5-min Rain = 0
KHA2 151943Z 01014KT 30/17 A2989 RMK A01 T03000172  RH  046%=      5-min Rain = 0
KHA2 151944Z 01015KT 30/17 A2989 RMK A01 T03000171  RH  046%=      5-min Rain = 0
KHA2 151945Z 01012KT 30/17 A2989 RMK A01 T03000170  RH  046%=      5-min Rain = 0
KHA2 151946Z 00013KT 30/17 A2989 RMK A01 T03010172  RH  046%=      5-min Rain = 0
KHA2 151947Z 00012KT 30/17 A2989 RMK A01 T03010170  RH  045%=      5-min Rain = 0
KHA2 151948Z 01014KT 30/17 A2989 RMK A01 T03000169  RH  045%=      5-min Rain = 0
KHA2 151949Z 01011KT 30/17 A2989 RMK A01 T03010171  RH  045%=      5-min Rain = 0
KHA2 151950Z 01011KT 30/17 A2989 RMK A01 T03040170  RH  045%=      5-min Rain = 0
KHA2 151951Z 02012KT 30/17 A2989 RMK A01 T03030171  RH  045%=      5-min Rain = 0
KHA2 151952Z 04014KT 30/17 A2989 RMK A01 T03020173  RH  046%=      5-min Rain = 0
KHA2 151953Z 03011KT 30/17 A2989 RMK A01 T03000168  RH  045%=      5-min Rain = 0
KHA2 151954Z 01014G20KT 30/17 A2988 RMK A01 T02990170  RH  046%=      5-min Rain = 0
KHA2 151955Z 00014KT 30/18 A2988 RMK A01 T03020175  RH  047%=      5-min Rain = 0
KHA2 151956Z 00012KT 30/17 A2989 RMK A01 T03000174  RH  047%=      5-min Rain = 0
KHA2 151957Z 00013KT 30/17 A2988 RMK A01 T02980174  RH  047%=      5-min Rain = 0
KHA2 151958Z 03013KT 30/17 A2988 RMK A01 T02980172  RH  047%=      5-min Rain = 0
KHA2 151959Z 03012KT 30/17 A2988 RMK A01 T02990170  RH  046%=      5-min Rain = 0
KHA2 152000Z 02013G19KT 30/17 A2988 RMK A01 T02990170  RH  046%=      5-min Rain = 0
KHA2 152001Z 00015KT 30/17 A2988 RMK A01 T02980171  RH  046%=      5-min Rain = 0
KHA2 152002Z 01012KT 30/17 A2988 RMK A01 T03000172  RH  046%=      5-min Rain = 0
KHA2 152003Z 04012KT 30/18 A2988 RMK A01 T03010175  RH  047%=      5-min Rain = 0
KHA2 152004Z 01016KT 30/18 A2988 RMK A01 T03020177  RH  047%=      5-min Rain = 0
KHA2 152005Z 02014KT 30/17 A2988 RMK A01 T03030171  RH  045%=      5-min Rain = 0
KHA2 152006Z 01014KT 30/17 A2988 RMK A01 T03000172  RH  046%=      5-min Rain = 0
KHA2 152007Z 01012KT 30/17 A2988 RMK A01 T03000170  RH  046%=      5-min Rain = 0
KHA2 152008Z 01012KT 30/17 A2988 RMK A01 T03000170  RH  046%=      5-min Rain = 0
KHA2 152009Z 02015KT 30/17 A2988 RMK A01 T03010173  RH  046%=      5-min Rain = 0
KHA2 152010Z 02014KT 30/17 A2988 RMK A01 T03000170  RH  045%=      5-min Rain = 0
KHA2 152011Z 02015KT 30/17 A2988 RMK A01 T02960174  RH  048%=      5-min Rain = 0
KHA2 152012Z 04016KT 30/18 A2988 RMK A01 T02960175  RH  048%=      5-min Rain = 0
KHA2 152013Z 03014KT 30/17 A2988 RMK A01 T02970174  RH  048%=      5-min Rain = 0
KHA2 152014Z 02014KT 30/18 A2988 RMK A01 T02960175  RH  048%=      5-min Rain = 0
KHA2 152015Z 02015KT 30/17 A2988 RMK A01 T02970170  RH  047%=      5-min Rain = 0
KHA2 152016Z 03015KT 30/17 A2988 RMK A01 T02970169  RH  046%=      5-min Rain = 0
KHA2 152017Z 03012KT 30/17 A2988 RMK A01 T02980169  RH  046%=      5-min Rain = 0
KHA2 152018Z 02013KT 30/17 A2988 RMK A01 T02980171  RH  047%=      5-min Rain = 0
KHA2 152019Z 02014G20KT 30/18 A2988 RMK A01 T03000175  RH  047%=      5-min Rain = 0
KHA2 152020Z 36017G22KT 30/18 A2988 RMK A01 T03020175  RH  047%=      5-min Rain = 0
KHA2 152021Z 03013KT 30/18 A2988 RMK A01 T03010178  RH  047%=      5-min Rain = 0
KHA2 152022Z 03011G17KT 30/18 A2988 RMK A01 T03020175  RH  047%=      5-min Rain = 0
KHA2 152023Z 03013KT 30/18 A2988 RMK A01 T03000176  RH  047%=      5-min Rain = 0
KHA2 152024Z 02014KT 30/17 A2988 RMK A01 T03020173  RH  046%=      5-min Rain = 0
KHA2 152025Z 01015KT 30/17 A2988 RMK A01 T03030170  RH  045%=      5-min Rain = 0
KHA2 152026Z 01012KT 30/17 A2988 RMK A01 T03020170  RH  045%=      5-min Rain = 0
KHA2 152027Z 03013G18KT 30/18 A2988 RMK A01 T03010175  RH  047%=      5-min Rain = 0
KHA2 152028Z 01015KT 30/18 A2988 RMK A01 T03030177  RH  047%=      5-min Rain = 0
KHA2 152029Z 02012KT 31/18 A2988 RMK A01 T03050177  RH  046%=      5-min Rain = 0
KHA2 152030Z 04014KT 31/18 A2988 RMK A01 T03070178  RH  046%=      5-min Rain = 0
KHA2 152031Z 05015KT 30/18 A2988 RMK A01 T03040175  RH  046%=      5-min Rain = 0
KHA2 152032Z 04014G19KT 30/18 A2988 RMK A01 T03010177  RH  047%=      5-min Rain = 0
KHA2 152033Z 04017KT 30/18 A2988 RMK A01 T03010176  RH  047%=      5-min Rain = 0
KHA2 152034Z 03013KT 30/18 A2988 RMK A01 T03010177  RH  047%=      5-min Rain = 0
KHA2 152035Z 02014KT 30/17 A2987 RMK A01 T03040173  RH  045%=      5-min Rain = 0
KHA2 152036Z 02013G18KT 30/17 A2988 RMK A01 T03030168  RH  044%=      5-min Rain = 0
KHA2 152037Z 03018KT 30/18 A2987 RMK A01 T03020176  RH  047%=      5-min Rain = 0
KHA2 152038Z 03013KT 30/18 A2988 RMK A01 T03000175  RH  047%=      5-min Rain = 0
KHA2 152039Z 03012G23KT 30/18 A2988 RMK A01 T02970177  RH  048%=      5-min Rain = 0
KHA2 152040Z 03019KT 30/18 A2987 RMK A01 T02980178  RH  049%=      5-min Rain = 0
KHA2 152041Z 03017KT 30/18 A2987 RMK A01 T03000179  RH  048%=      5-min Rain = 0
KHA2 152042Z 04014KT 30/18 A2988 RMK A01 T03000177  RH  048%=      5-min Rain = 0
KHA2 152043Z 04012G17KT 30/18 A2988 RMK A01 T02970177  RH  048%=      5-min Rain = 0
KHA2 152044Z 05016KT 30/18 A2987 RMK A01 T02960175  RH  048%=      5-min Rain = 0
KHA2 152045Z 05017KT 30/17 A2987 RMK A01 T02960172  RH  047%=      5-min Rain = 0
KHA2 152046Z 05016KT 30/18 A2987 RMK A01 T02980175  RH  048%=      5-min Rain = 0
KHA2 152047Z 03020KT 30/18 A2987 RMK A01 T03000175  RH  047%=      5-min Rain = 0
KHA2 152048Z 03017KT 30/17 A2987 RMK A01 T03000173  RH  046%=      5-min Rain = 0
KHA2 152049Z 03015KT 30/17 A2987 RMK A01 T02970172  RH  047%=      5-min Rain = 0
KHA2 152050Z 02013KT 30/17 A2987 RMK A01 T02980167  RH  045%=      5-min Rain = 0
KHA2 152051Z 03013KT 30/17 A2987 RMK A01 T02980166  RH  045%=      5-min Rain = 0
KHA2 152052Z 02014KT 30/17 A2987 RMK A01 T02990166  RH  045%=      5-min Rain = 0
KHA2 152053Z 02012KT 30/17 A2987 RMK A01 T03000166  RH  044%=      5-min Rain = 0
KHA2 152054Z 02015KT 30/17 A2987 RMK A01 T03010168  RH  045%=      5-min Rain = 0
KHA2 152055Z 04015KT 30/17 A2987 RMK A01 T03030169  RH  045%=      5-min Rain = 0
KHA2 152056Z 03011KT 30/17 A2987 RMK A01 T03020171  RH  045%=      5-min Rain = 0
KHA2 152057Z 03018KT 30/18 A2987 RMK A01 T03020175  RH  046%=      5-min Rain = 0
KHA2 152058Z 03017G22KT 30/18 A2987 RMK A01 T03020176  RH  047%=      5-min Rain = 0
KHA2 152059Z 02016G21KT 30/17 A2987 RMK A01 T02990173  RH  047%=      5-min Rain = 0
KHA2 152100Z 01014KT 30/17 A2987 RMK A01 T02970172  RH  047%=      5-min Rain = 0
KHA2 152101Z 04012KT 30/18 A2987 RMK A01 T03000175  RH  047%=      5-min Rain = 0
KHA2 152102Z 04011KT 30/18 A2986 RMK A01 T03030176  RH  046%=      5-min Rain = 0
KHA2 152103Z 05010KT 31/18 A2986 RMK A01 T03060175  RH  046%=      5-min Rain = 0
KHA2 152104Z 04011G17KT 30/17 A2986 RMK A01 T03040173  RH  045%=      5-min Rain = 0
KHA2 152105Z 03015KT 30/18 A2986 RMK A01 T03020176  RH  047%=      5-min Rain = 0
KHA2 152106Z 03016KT 30/18 A2986 RMK A01 T03020176  RH  047%=      5-min Rain = 0
KHA2 152107Z 03016KT 30/18 A2986 RMK A01 T03030175  RH  046%=      5-min Rain = 0
KHA2 152108Z 03013KT 30/18 A2986 RMK A01 T03020175  RH  047%=      5-min Rain = 0
KHA2 152109Z 04012KT 30/17 A2986 RMK A01 T03000173  RH  046%=      5-min Rain = 0
KHA2 152110Z 04013KT 30/18 A2986 RMK A01 T03020175  RH  047%=      5-min Rain = 0
KHA2 152111Z 05013KT 30/17 A2986 RMK A01 T03040172  RH  045%=      5-min Rain = 0
KHA2 152112Z 05016KT 30/18 A2986 RMK A01 T03040175  RH  046%=      5-min Rain = 0
KHA2 152113Z 04011KT 31/17 A2986 RMK A01 T03050174  RH  045%=      5-min Rain = 0
KHA2 152114Z 02014KT 31/18 A2985 RMK A01 T03050176  RH  046%=      5-min Rain = 0
KHA2 152115Z 05015KT 31/18 A2985 RMK A01 T03070178  RH  046%=      5-min Rain = 0
KHA2 152116Z 04015KT 31/18 A2985 RMK A01 T03080178  RH  046%=      5-min Rain = 0
KHA2 152117Z 02017KT 31/18 A2985 RMK A01 T03070178  RH  046%=      5-min Rain = 0
KHA2 152118Z 02014KT 31/18 A2985 RMK A01 T03050178  RH  047%=      5-min Rain = 0
KHA2 152119Z 01017KT 30/18 A2985 RMK A01 T03020175  RH  047%=      5-min Rain = 0
KHA2 152120Z 02016KT 30/18 A2985 RMK A01 T03000175  RH  047%=      5-min Rain = 0
KHA2 152121Z 03015KT 30/18 A2985 RMK A01 T02990176  RH  048%=      5-min Rain = 0
KHA2 152122Z 04015KT 30/18 A2985 RMK A01 T02990177  RH  048%=      5-min Rain = 0
KHA2 152123Z 06018KT 30/17 A2985 RMK A01 T02980174  RH  047%=      5-min Rain = 0
KHA2 152124Z 04016KT 30/17 A2985 RMK A01 T02950173  RH  048%=      5-min Rain = 0
KHA2 152125Z 04017KT 30/17 A2985 RMK A01 T02950171  RH  047%=      5-min Rain = 0
KHA2 152126Z 03015KT 30/17 A2985 RMK A01 T02950171  RH  047%=      5-min Rain = 0
KHA2 152127Z 03017KT 30/17 A2985 RMK A01 T02950173  RH  048%=      5-min Rain = 0
KHA2 152128Z 04014KT 29/17 A2985 RMK A01 T02940172  RH  048%=      5-min Rain = 0
KHA2 152129Z 04015KT 29/17 A2985 RMK A01 T02920173  RH  048%=      5-min Rain = 0
KHA2 152130Z 03012KT 29/18 A2984 RMK A01 T02920175  RH  049%=      5-min Rain = 0
KHA2 152131Z 04014KT 29/18 A2984 RMK A01 T02920177  RH  050%=      5-min Rain = 0
KHA2 152132Z 04017KT 29/18 A2984 RMK A01 T02930175  RH  049%=      5-min Rain = 0
KHA2 152133Z 04016KT 29/17 A2985 RMK A01 T02920173  RH  049%=      5-min Rain = 0
KHA2 152134Z 05016KT 29/17 A2985 RMK A01 T02910173  RH  049%=      5-min Rain = 0
KHA2 152135Z 05016KT 29/17 A2985 RMK A01 T02910171  RH  048%=      5-min Rain = 0
KHA2 152136Z 05014KT 29/17 A2985 RMK A01 T02880169  RH  048%=      5-min Rain = 0
KHA2 152137Z 04013KT 29/17 A2985 RMK A01 T02870168  RH  049%=      5-min Rain = 0
KHA2 152138Z 04013G18KT 29/17 A2985 RMK A01 T02860170  RH  049%=      5-min Rain = 0
KHA2 152139Z 05015KT 29/17 A2985 RMK A01 T02860169  RH  049%=      5-min Rain = 0
KHA2 152140Z 04017KT 29/17 A2985 RMK A01 T02860167  RH  048%=      5-min Rain = 0
KHA2 152141Z 04014KT 29/17 A2985 RMK A01 T02860165  RH  048%=      5-min Rain = 0
KHA2 152142Z 04015KT 29/17 A2985 RMK A01 T02860166  RH  048%=      5-min Rain = 0
KHA2 152143Z 05015KT 29/17 A2986 RMK A01 T02860170  RH  050%=      5-min Rain = 0
KHA2 152144Z 04015KT 29/17 A2986 RMK A01 T02850170  RH  050%=      5-min Rain = 0
KHA2 152145Z 04013KT 28/17 A2986 RMK A01 T02840171  RH  050%=      5-min Rain = 0
KHA2 152146Z 04014KT 29/17 A2986 RMK A01 T02850169  RH  049%=      5-min Rain = 0
KHA2 152147Z 05013KT 29/17 A2986 RMK A01 T02850168  RH  049%=      5-min Rain = 0
KHA2 152148Z 05012KT 29/17 A2986 RMK A01 T02850171  RH  050%=      5-min Rain = 0
KHA2 152149Z 05013KT 28/17 A2986 RMK A01 T02840172  RH  051%=      5-min Rain = 0
KHA2 152150Z 05015KT 28/17 A2986 RMK A01 T02820173  RH  051%=      5-min Rain = 0
KHA2 152151Z 05014KT 28/17 A2986 RMK A01 T02820173  RH  052%=      5-min Rain = 0
KHA2 152152Z 05013KT 28/17 A2986 RMK A01 T02820173  RH  052%=      5-min Rain = 0
KHA2 152153Z 05012KT 28/17 A2986 RMK A01 T02810173  RH  052%=      5-min Rain = 0
KHA2 152154Z 05014KT 28/17 A2985 RMK A01 T02800173  RH  052%=      5-min Rain = 0
KHA2 152155Z 05014KT 28/17 A2985 RMK A01 T02800174  RH  052%=      5-min Rain = 0
KHA2 152156Z 05012KT 28/17 A2985 RMK A01 T02790173  RH  052%=      5-min Rain = 0
KHA2 152157Z 05012KT 28/17 A2986 RMK A01 T02790173  RH  053%=      5-min Rain = 0
KHA2 152158Z 05012KT 28/17 A2986 RMK A01 T02800174  RH  053%=      5-min Rain = 0
KHA2 152159Z 05014KT 28/17 A2986 RMK A01 T02790173  RH  052%=      5-min Rain = 0
KHA2 152200Z 05012KT 28/17 A2986 RMK A01 T02790172  RH  052%=      5-min Rain = 0
KHA2 152201Z 05011KT 28/17 A2987 RMK A01 T02780172  RH  052%=      5-min Rain = 0
KHA2 152202Z 05010KT 28/17 A2987 RMK A01 T02790171  RH  052%=      5-min Rain = 0
KHA2 152203Z 05011KT 28/17 A2987 RMK A01 T02780171  RH  052%=      5-min Rain = 0
KHA2 152204Z 05011KT 28/17 A2987 RMK A01 T02780172  RH  053%=      5-min Rain = 0
KHA2 152205Z 05011KT 28/17 A2987 RMK A01 T02780173  RH  053%=      5-min Rain = 0
KHA2 152206Z 04011KT 28/17 A2987 RMK A01 T02780173  RH  053%=      5-min Rain = 0
KHA2 152207Z 04010KT 28/17 A2987 RMK A01 T02780173  RH  053%=      5-min Rain = 0
KHA2 152208Z 04009KT 28/17 A2988 RMK A01 T02780173  RH  053%=      5-min Rain = 0
KHA2 152209Z 04009KT 28/17 A2988 RMK A01 T02780174  RH  053%=      5-min Rain = 0
KHA2 152210Z 04010KT 28/17 A2988 RMK A01 T02780174  RH  053%=      5-min Rain = 0
KHA2 152211Z 04009KT 28/17 A2988 RMK A01 T02780173  RH  053%=      5-min Rain = 0
KHA2 152212Z 03010KT 28/17 A2988 RMK A01 T02780172  RH  053%=      5-min Rain = 0
KHA2 152213Z 03008KT 28/17 A2988 RMK A01 T02780172  RH  053%=      5-min Rain = 0
KHA2 152214Z 03008KT 28/17 A2989 RMK A01 T02780173  RH  053%=      5-min Rain = 0
KHA2 152215Z 03008KT 28/17 A2989 RMK A01 T02780173  RH  053%=      5-min Rain = 0
KHA2 152216Z 02007KT 28/17 A2989 RMK A01 T02790173  RH  053%=      5-min Rain = 0
KHA2 152217Z 02007KT 28/17 A2989 RMK A01 T02780173  RH  052%=      5-min Rain = 0
KHA2 152218Z 02008KT 28/17 A299 RMK A01 T02780172  RH  052%=      5-min Rain = 0
KHA2 152219Z 01008KT 28/17 A299 RMK A01 T02780171  RH  052%=      5-min Rain = 0
KHA2 152220Z 01008KT 28/17 A299 RMK A01 T02780171  RH  052%=      5-min Rain = 0
KHA2 152221Z 00008KT 28/17 A299 RMK A01 T02780172  RH  052%=      5-min Rain = 0
KHA2 152222Z 00008KT 28/17 A2991 RMK A01 T02780172  RH  052%=      5-min Rain = 0
KHA2 152223Z 00008KT 28/17 A2991 RMK A01 T02790172  RH  052%=      5-min Rain = 0
KHA2 152224Z 02006KT 28/17 A2991 RMK A01 T02800173  RH  052%=      5-min Rain = 0
KHA2 152225Z 03006KT 28/17 A2991 RMK A01 T02800174  RH  053%=      5-min Rain = 0
KHA2 152226Z 03005KT 28/18 A2991 RMK A01 T02800175  RH  053%=      5-min Rain = 0
KHA2 152227Z 04005KT 28/17 A2991 RMK A01 T02790174  RH  053%=      5-min Rain = 0
KHA2 152228Z 06004KT 28/18 A2991 RMK A01 T02790175  RH  053%=      5-min Rain = 0
KHA2 152229Z 08005KT 28/17 A2991 RMK A01 T02790174  RH  053%=      5-min Rain = 0
KHA2 152230Z 08004KT 28/18 A2991 RMK A01 T02780175  RH  054%=      5-min Rain = 0
KHA2 152231Z 07003KT 28/18 A2991 RMK A01 T02780178  RH  055%=      5-min Rain = 0
KHA2 152232Z 07005KT 28/18 A2992 RMK A01 T02770180  RH  055%=      5-min Rain = 0
KHA2 152233Z 04005KT 28/18 A2992 RMK A01 T02760180  RH  056%=      5-min Rain = 0
KHA2 152234Z 03005KT 28/18 A2992 RMK A01 T02760180  RH  056%=      5-min Rain = 0
KHA2 152235Z 01005KT 28/18 A2992 RMK A01 T02750177  RH  055%=      5-min Rain = 0
KHA2 152236Z 35006KT 28/17 A2992 RMK A01 T02750173  RH  054%=      5-min Rain = 0
KHA2 152237Z 34007KT 28/17 A2992 RMK A01 T02760170  RH  052%=      5-min Rain = 0
KHA2 152238Z 32009KT 28/17 A2992 RMK A01 T02790171  RH  052%=      5-min Rain = 0
KHA2 152239Z 30010KT 28/17 A2992 RMK A01 T02810172  RH  052%=      5-min Rain = 0
KHA2 152240Z 29010KT 28/17 A2993 RMK A01 T02820174  RH  052%=      5-min Rain = 0
KHA2 152241Z 29010KT 28/17 A2993 RMK A01 T02820173  RH  052%=      5-min Rain = 0
KHA2 152242Z 29009KT 28/17 A2993 RMK A01 T02820172  RH  051%=      5-min Rain = 0
KHA2 152243Z 29008KT 28/17 A2993 RMK A01 T02820172  RH  051%=      5-min Rain = 0
KHA2 152244Z 28012KT 28/17 A2993 RMK A01 T02820172  RH  051%=      5-min Rain = 0
KHA2 152245Z 28011KT 28/17 A2993 RMK A01 T02820171  RH  051%=      5-min Rain = 0
KHA2 152246Z 27010KT 28/17 A2993 RMK A01 T02820170  RH  051%=      5-min Rain = 0
KHA2 152247Z 26011KT 28/17 A2993 RMK A01 T02820169  RH  050%=      5-min Rain = 0
KHA2 152248Z 25013KT 28/17 A2993 RMK A01 T02820166  RH  049%=      5-min Rain = 0
KHA2 152249Z 24018G23KT 28/11 A2993 RMK A01 T02820108  RH  034%=      5-min Rain = 0
KHA2 152250Z 24014KT 28/09 A2993 RMK A01 T02830085  RH  029%=      5-min Rain = 0
KHA2 152251Z 26015KT 29/11 A2993 RMK A01 T02850112  RH  034%=      5-min Rain = 0
KHA2 152252Z 27020KT 28/12 A2993 RMK A01 T02840118  RH  036%=      5-min Rain = 0
KHA2 152253Z 26017KT 28/11 A2993 RMK A01 T02830110  RH  034%=      5-min Rain = 0
KHA2 152254Z 27023G32KT 28/10 A2993 RMK A01 T02830100  RH  032%=      5-min Rain = 0
KHA2 152255Z 26029G36KT 28/08 A2992 RMK A01 T02790078  RH  028%=      5-min Rain = 0
KHA2 152256Z 25026G31KT 27/08 A2992 RMK A01 T02710080  RH  030%=      5-min Rain = 0
KHA2 152257Z 25024KT 26/08 A2993 RMK A01 T02640078  RH  031%=      5-min Rain = 0
KHA2 152258Z 26023KT 26/08 A2992 RMK A01 T02590079  RH  032%=      5-min Rain = 0
KHA2 152259Z 26022G27KT 26/08 A2993 RMK A01 T02570084  RH  033%=      5-min Rain = 0
KHA2 152300Z 26021KT 26/08 A2994 RMK A01 T02560083  RH  033%=      5-min Rain = 0
KHA2 152301Z 27023KT 26/09 A2994 RMK A01 T02550085  RH  034%=      5-min Rain = 0
KHA2 152302Z 27021G27KT 25/09 A2994 RMK A01 T02520093  RH  037%=      5-min Rain = 0
KHA2 152303Z 29025G31KT 25/10 A2993 RMK A01 T02470097  RH  039%=      5-min Rain = 0
KHA2 152304Z 29025G33KT 25/09 A2993 RMK A01 T02460088  RH  037%=      5-min Rain = 0
KHA2 152305Z 30023G30KT 25/10 A2993 RMK A01 T02450097  RH  039%=      5-min Rain = 0
KHA2 152306Z 30026G31KT 24/11 A2993 RMK A01 T02380107  RH  044%=      5-min Rain = 0
KHA2 152307Z 31024KT 23/10 A2993 RMK A01 T02320104  RH  044%=      5-min Rain = 0
KHA2 152308Z 32021KT 23/11 A2993 RMK A01 T02310107  RH  046%=      5-min Rain = 0
KHA2 152309Z 32020KT 23/11 A2992 RMK A01 T02280106  RH  046%=      5-min Rain = 0
KHA2 152310Z 32016KT 23/10 A2992 RMK A01 T02270102  RH  045%=      5-min Rain = 0
KHA2 152311Z 33018KT 23/10 A2992 RMK A01 T02270097  RH  043%=      5-min Rain = 0
KHA2 152312Z 34018KT 23/09 A2992 RMK A01 T02300089  RH  040%=      5-min Rain = 0
KHA2 152313Z 35018KT 23/09 A2992 RMK A01 T02310092  RH  041%=      5-min Rain = 0
KHA2 152314Z 35016KT 23/09 A2992 RMK A01 T02310089  RH  040%=      5-min Rain = 0
KHA2 152315Z 00016KT 23/09 A2992 RMK A01 T02310085  RH  039%=      5-min Rain = 0
KHA2 152316Z 00015KT 23/10 A2991 RMK A01 T02310096  RH  042%=      5-min Rain = 0
KHA2 152317Z 01015KT 23/10 A2991 RMK A01 T02260104  RH  046%=      5-min Rain = 0
KHA2 152318Z 01014KT 22/11 A2992 RMK A01 T02220108  RH  048%=      5-min Rain = 0
KHA2 152319Z 36015KT 22/11 A2992 RMK A01 T02190109  RH  049%=      5-min Rain = 0
KHA2 152320Z 00014KT 22/10 A2992 RMK A01 T02200102  RH  047%=      5-min Rain = 0
KHA2 152321Z 01014KT 22/10 A2992 RMK A01 T02240098  RH  045%=      5-min Rain = 0
KHA2 152322Z 01014KT 23/09 A2992 RMK A01 T02270092  RH  042%=      5-min Rain = 0
KHA2 152323Z 02015KT 23/09 A2992 RMK A01 T02310090  RH  040%=      5-min Rain = 0
KHA2 152324Z 02014KT 23/09 A2991 RMK A01 T02330091  RH  040%=      5-min Rain = 0
KHA2 152325Z 02016KT 23/09 A2991 RMK A01 T02340089  RH  040%=      5-min Rain = 0
KHA2 152326Z 02015KT 23/09 A2991 RMK A01 T02330089  RH  040%=      5-min Rain = 0
KHA2 152327Z 03015KT 23/09 A299 RMK A01 T02340085  RH  039%=      5-min Rain = 0
KHA2 152328Z 03015KT 23/09 A299 RMK A01 T02340086  RH  039%=      5-min Rain = 0
KHA2 152329Z 04015KT 23/09 A2989 RMK A01 T02340088  RH  039%=      5-min Rain = 0
KHA2 152330Z 05014KT 23/09 A2989 RMK A01 T02320087  RH  039%=      5-min Rain = 0
KHA2 152331Z 04014KT 23/09 A2989 RMK A01 T02320087  RH  040%=      5-min Rain = 0
KHA2 152332Z 04017KT 23/09 A2989 RMK A01 T02300091  RH  041%=      5-min Rain = 0
KHA2 152333Z 04016KT 23/09 A2988 RMK A01 T02290089  RH  041%=      5-min Rain = 0
KHA2 152334Z 04013KT 23/09 A2989 RMK A01 T02290088  RH  040%=      5-min Rain = 0
KHA2 152335Z 05015KT 23/09 A2989 RMK A01 T02290086  RH  040%=      5-min Rain = 0
KHA2 152336Z 05012KT 23/09 A2989 RMK A01 T02290087  RH  040%=      5-min Rain = 0
KHA2 152337Z 06009KT 23/09 A2989 RMK A01 T02290092  RH  042%=      5-min Rain = 0
KHA2 152338Z 06012KT 23/10 A2989 RMK A01 T02270098  RH  044%=      5-min Rain = 0
KHA2 152339Z 06012KT 23/09 A2989 RMK A01 T02270094  RH  043%=      5-min Rain = 0
KHA2 152340Z 06009KT 23/09 A2989 RMK A01 T02270093  RH  042%=      5-min Rain = 0
KHA2 152341Z 05008KT 23/10 A2989 RMK A01 T02270097  RH  044%=      5-min Rain = 0
KHA2 152342Z 04012KT 23/09 A2989 RMK A01 T02260087  RH  041%=      5-min Rain = 0
KHA2 152343Z 05013KT 23/08 A2989 RMK A01 T02310082  RH  038%=      5-min Rain = 0
KHA2 152344Z 06009KT 23/08 A2989 RMK A01 T02340084  RH  038%=      5-min Rain = 0
KHA2 152345Z 03013G18KT 23/08 A2989 RMK A01 T02340084  RH  038%=      5-min Rain = 0
KHA2 152346Z 04016KT 24/08 A299 RMK A01 T02350080  RH  037%=      5-min Rain = 0
KHA2 152347Z 05017KT 24/07 A299 RMK A01 T02380074  RH  035%=      5-min Rain = 0
KHA2 152348Z 05015KT 24/07 A299 RMK A01 T02420070  RH  033%=      5-min Rain = 0
KHA2 152349Z 07014KT 24/08 A2991 RMK A01 T02430076  RH  034%=      5-min Rain = 0
KHA2 152350Z 07017KT 24/09 A2991 RMK A01 T02390089  RH  039%=      5-min Rain = 0
KHA2 152351Z 07015KT 24/09 A2991 RMK A01 T02350091  RH  040%=      5-min Rain = 0
KHA2 152352Z 07015KT 23/09 A2992 RMK A01 T02320094  RH  041%=      5-min Rain = 0
KHA2 152353Z 07015KT 23/10 A2992 RMK A01 T02290096  RH  043%=      5-min Rain = 0
KHA2 152354Z 07017KT 23/10 A2992 RMK A01 T02270095  RH  043%=      5-min Rain = 0
KHA2 152355Z 08018G23KT 23/10 A2992 RMK A01 T02250097  RH  044%=      5-min Rain = 0
KHA2 152356Z 08022KT 22/11 A2992 RMK A01 T02190112  RH  050%=      5-min Rain = 0
KHA2 152357Z 06018KT 21/11 A2992 RMK A01 T02130110  RH  052%=      5-min Rain = 0
KHA2 152358Z 07024G29KT 21/11 A2991 RMK A01 T02090108  RH  052%=      5-min Rain = 0
KHA2 152359Z 06022G28KT 21/11 A299 RMK A01 T02060109  RH  054%=      5-min Rain = 0
KHA2 160000Z 07024KT 20/11 A2989 RMK A01 T02030111  RH  056%=      5-min Rain = 0
KHA2 160001Z 08025G30KT 20/12 A2988 RMK A01 T02010115  RH  058%=      5-min Rain = 0
KHA2 160002Z 07026G31KT 20/11 A2987 RMK A01 T02010110  RH  056%=      5-min Rain = 0
KHA2 160003Z 07029KT 21/10 A2987 RMK A01 T02060104  RH  052%=      5-min Rain = 0
KHA2 160004Z 07028KT 21/10 A2987 RMK A01 T02110103  RH  050%=      5-min Rain = 0
KHA2 160005Z 07022KT 21/10 A2987 RMK A01 T02130101  RH  049%=      5-min Rain = 0
KHA2 160006Z 08024KT 21/10 A2986 RMK A01 T02140101  RH  049%=      5-min Rain = 0
KHA2 160007Z 07019KT 22/10 A2986 RMK A01 T02150097  RH  047%=      5-min Rain = 0
KHA2 160008Z 07019KT 22/10 A2986 RMK A01 T02150095  RH  046%=      5-min Rain = 0
KHA2 160009Z 08017KT 22/08 A2987 RMK A01 T02210082  RH  041%=      5-min Rain = 0
KHA2 160010Z 07016KT 23/08 A2987 RMK A01 T02270083  RH  040%=      5-min Rain = 0
KHA2 160011Z 06015G20KT 23/08 A2988 RMK A01 T02290084  RH  040%=      5-min Rain = 0
KHA2 160012Z 06013KT 23/08 A2988 RMK A01 T02280084  RH  040%=      5-min Rain = 0
KHA2 160013Z 05014G24KT 23/08 A2988 RMK A01 T02260081  RH  039%=      5-min Rain = 0
KHA2 160014Z 04020KT 23/07 A2988 RMK A01 T02310067  RH  035%=      5-min Rain = 0
KHA2 160015Z 05026G33KT 24/07 A2989 RMK A01 T02430068  RH  033%=      5-min Rain = 0
KHA2 160016Z 06022KT 24/08 A2989 RMK A01 T02410076  RH  035%=      5-min Rain = 0
KHA2 160017Z 06020KT 23/08 A299 RMK A01 T02340081  RH  038%=      5-min Rain = 0
KHA2 160018Z 06019KT 23/08 A299 RMK A01 T02290083  RH  039%=      5-min Rain = 0
KHA2 160019Z 06020KT 23/08 A2991 RMK A01 T02290083  RH  039%=      5-min Rain = 0
KHA2 160020Z 05020KT 23/08 A2991 RMK A01 T02280080  RH  039%=      5-min Rain = 0
KHA2 160021Z 05019KT 23/08 A2991 RMK A01 T02310077  RH  037%=      5-min Rain = 0
KHA2 160022Z 05019KT 23/09 A2992 RMK A01 T02310085  RH  039%=      5-min Rain = 0
KHA2 160023Z 05017KT 23/09 A2992 RMK A01 T02260087  RH  041%=      5-min Rain = 0
KHA2 160024Z 05018G23KT 22/09 A2991 RMK A01 T02230089  RH  042%=      5-min Rain = 0
KHA2 160025Z 05017KT 22/09 A2991 RMK A01 T02210090  RH  043%=      5-min Rain = 0
KHA2 160026Z 06017G22KT 22/09 A2991 RMK A01 T02190089  RH  043%=      5-min Rain = 0
KHA2 160027Z 06022KT 22/09 A2991 RMK A01 T02200086  RH  042%=      5-min Rain = 0
KHA2 160028Z 06019KT 22/09 A2992 RMK A01 T02220087  RH  042%=      5-min Rain = 0
KHA2 160029Z 06021KT 22/09 A2992 RMK A01 T02220090  RH  043%=      5-min Rain = 0
KHA2 160030Z 06017KT 22/10 A2992 RMK A01 T02190096  RH  046%=      5-min Rain = 0
KHA2 160031Z 07019G25KT 21/10 A2991 RMK A01 T02130098  RH  048%=      5-min Rain = 0
KHA2 160032Z 07021KT 21/10 A2991 RMK A01 T02080103  RH  051%=      5-min Rain = 0
KHA2 160033Z 05020KT 20/10 A2992 RMK A01 T02040104  RH  053%=      5-min Rain = 0
KHA2 160034Z 06018KT 20/10 A2992 RMK A01 T02000104  RH  054%=      5-min Rain = 0
KHA2 160035Z 06021G26KT 20/10 A2991 RMK A01 T01980104  RH  054%=      5-min Rain = 0
KHA2 160036Z 05020KT 20/10 A2992 RMK A01 T01970102  RH  054%=      5-min Rain = 0
KHA2 160037Z 05020KT 20/10 A2992 RMK A01 T01990101  RH  053%=      5-min Rain = 0
KHA2 160038Z 05019KT 20/10 A2992 RMK A01 T02000102  RH  053%=      5-min Rain = 0
KHA2 160039Z 05018KT 20/10 A2991 RMK A01 T02000101  RH  053%=      5-min Rain = 0
KHA2 160040Z 05023KT 20/10 A2991 RMK A01 T02010098  RH  052%=      5-min Rain = 0
KHA2 160041Z 05023KT 20/10 A2991 RMK A01 T02020098  RH  051%=      5-min Rain = 0
KHA2 160042Z 05021KT 20/10 A2991 RMK A01 T02020098  RH  051%=      5-min Rain = 0
KHA2 160043Z 06020KT 20/10 A2991 RMK A01 T02030095  RH  050%=      5-min Rain = 0
KHA2 160044Z 06019KT 21/09 A2991 RMK A01 T02050094  RH  049%=      5-min Rain = 0
KHA2 160045Z 06019KT 21/10 A2991 RMK A01 T02060097  RH  050%=      5-min Rain = 0
KHA2 160046Z 06016KT 20/10 A2991 RMK A01 T02040099  RH  051%=      5-min Rain = 0
KHA2 160047Z 07016KT 20/11 A2991 RMK A01 T02010105  RH  054%=      5-min Rain = 0
KHA2 160048Z 06019KT 20/10 A2991 RMK A01 T01990104  RH  054%=      5-min Rain = 0
KHA2 160049Z 07019KT 20/10 A2991 RMK A01 T01980102  RH  054%=      5-min Rain = 0
KHA2 160050Z 07015KT 20/11 A2992 RMK A01 T01990106  RH  055%=      5-min Rain = 0
KHA2 160051Z 08016KT 20/11 A2992 RMK A01 T01990110  RH  056%=      5-min Rain = 0
KHA2 160052Z 07017KT 20/11 A2992 RMK A01 T01980109  RH  057%=      5-min Rain = 0
KHA2 160053Z 07016KT 20/11 A2992 RMK A01 T01960110  RH  058%=      5-min Rain = 0
KHA2 160054Z 07017KT 20/11 A2992 RMK A01 T01950112  RH  059%=      5-min Rain = 0
KHA2 160055Z 07015KT 19/11 A2992 RMK A01 T01940113  RH  059%=      5-min Rain = 0
KHA2 160056Z 08017KT 19/11 A2992 RMK A01 T01940113  RH  060%=      5-min Rain = 0
KHA2 160057Z 08015KT 19/11 A2992 RMK A01 T01940111  RH  059%=      5-min Rain = 0
KHA2 160058Z 08015KT 19/11 A2992 RMK A01 T01940112  RH  059%=      5-min Rain = 0
KHA2 160059Z 08013KT 19/11 A2992 RMK A01 T01940112  RH  059%=      5-min Rain = 0
KHA2 160100Z 08014KT 19/11 A2992 RMK A01 T01940113  RH  059%=      5-min Rain = 0
KHA2 160101Z 08013KT 19/11 A2992 RMK A01 T01930113  RH  060%=      5-min Rain = 0
KHA2 160102Z 08014KT 19/11 A2992 RMK A01 T01930112  RH  059%=      5-min Rain = 0
KHA2 160103Z 08012KT 19/11 A2992 RMK A01 T01930113  RH  060%=      5-min Rain = 0
KHA2 160104Z 08013KT 19/12 A2992 RMK A01 T01930115  RH  060%=      5-min Rain = 0
KHA2 160105Z 08013KT 19/12 A2992 RMK A01 T01920115  RH  061%=      5-min Rain = 0
KHA2 160106Z 08012KT 19/12 A2992 RMK A01 T01920117  RH  062%=      5-min Rain = 0
KHA2 160107Z 08012KT 19/12 A2992 RMK A01 T01910116  RH  062%=      5-min Rain = 0
KHA2 160108Z 08013KT 19/12 A2991 RMK A01 T01910115  RH  061%=      5-min Rain = 0
KHA2 160109Z 08013KT 19/12 A2991 RMK A01 T01910116  RH  061%=      5-min Rain = 0
KHA2 160110Z 08014KT 19/12 A2991 RMK A01 T01920115  RH  061%=      5-min Rain = 0
KHA2 160111Z 08014KT 19/11 A2991 RMK A01 T01920114  RH  060%=      5-min Rain = 0
KHA2 160112Z 08015KT 19/11 A2991 RMK A01 T01930113  RH  060%=      5-min Rain = 0
KHA2 160113Z 08015KT 19/11 A2991 RMK A01 T01940111  RH  059%=      5-min Rain = 0
KHA2 160114Z 08015KT 19/11 A2991 RMK A01 T01940110  RH  058%=      5-min Rain = 0
KHA2 160115Z 08014KT 20/11 A2991 RMK A01 T01950111  RH  058%=      5-min Rain = 0
KHA2 160116Z 08015KT 20/11 A2991 RMK A01 T01960110  RH  057%=      5-min Rain = 0
KHA2 160117Z 08015KT 20/11 A299 RMK A01 T01970109  RH  057%=      5-min Rain = 0
KHA2 160118Z 08015KT 20/11 A299 RMK A01 T01980109  RH  056%=      5-min Rain = 0
KHA2 160119Z 08015KT 20/11 A299 RMK A01 T01980109  RH  056%=      5-min Rain = 0
KHA2 160120Z 07014KT 20/11 A299 RMK A01 T01990109  RH  056%=      5-min Rain = 0
KHA2 160121Z 08014KT 20/11 A299 RMK A01 T02000107  RH  055%=      5-min Rain = 0
KHA2 160122Z 08013KT 20/10 A299 RMK A01 T02010104  RH  054%=      5-min Rain = 0
KHA2 160123Z 08013KT 20/10 A299 RMK A01 T02020104  RH  053%=      5-min Rain = 0
KHA2 160124Z 08013KT 20/10 A299 RMK A01 T02040102  RH  052%=      5-min Rain = 0
KHA2 160125Z 08012KT 21/10 A299 RMK A01 T02050102  RH  051%=      5-min Rain = 0
KHA2 160126Z 08011KT 21/10 A299 RMK A01 T02060102  RH  051%=      5-min Rain = 0
KHA2 160127Z 08011KT 21/10 A299 RMK A01 T02070100  RH  050%=      5-min Rain = 0
KHA2 160128Z 08010KT 21/10 A299 RMK A01 T02080099  RH  050%=      5-min Rain = 0
KHA2 160129Z 08010KT 21/10 A2989 RMK A01 T02090099  RH  049%=      5-min Rain = 0
KHA2 160130Z 09010KT 21/10 A2989 RMK A01 T02090099  RH  049%=      5-min Rain = 0
KHA2 160131Z 09009KT 21/10 A2989 RMK A01 T02100099  RH  049%=      5-min Rain = 0
KHA2 160132Z 10010KT 21/10 A2989 RMK A01 T02100097  RH  048%=      5-min Rain = 0
KHA2 160133Z 11009KT 21/10 A2989 RMK A01 T02110095  RH  048%=      5-min Rain = 0
KHA2 160134Z 10010KT 21/09 A2989 RMK A01 T02110094  RH  047%=      5-min Rain = 0
KHA2 160135Z 11011G16KT 21/10 A2989 RMK A01 T02110096  RH  048%=      5-min Rain = 0
KHA2 160136Z 11011KT 21/10 A2989 RMK A01 T02080101  RH  050%=      5-min Rain = 0
KHA2 160137Z 10009KT 20/10 A2989 RMK A01 T02030104  RH  053%=      5-min Rain = 0
KHA2 160138Z 10009KT 20/11 A2989 RMK A01 T01990106  RH  055%=      5-min Rain = 0
KHA2 160139Z 10009KT 20/11 A2989 RMK A01 T01980106  RH  055%=      5-min Rain = 0
KHA2 160140Z 11009KT 20/11 A2989 RMK A01 T01970106  RH  056%=      5-min Rain = 0
KHA2 160141Z 11009KT 20/11 A2989 RMK A01 T01960106  RH  056%=      5-min Rain = 0
KHA2 160142Z 12009KT 20/11 A2989 RMK A01 T01950106  RH  056%=      5-min Rain = 0
KHA2 160143Z 14011KT 19/11 A2989 RMK A01 T01940105  RH  056%=      5-min Rain = 0
KHA2 160144Z 15012KT 20/11 A2989 RMK A01 T01950105  RH  056%=      5-min Rain = 0
KHA2 160145Z 14013KT 19/10 A2989 RMK A01 T01940104  RH  056%=      5-min Rain = 0
KHA2 160146Z 14012KT 19/10 A2989 RMK A01 T01940104  RH  056%=      5-min Rain = 0
KHA2 160147Z 13011KT 19/10 A2989 RMK A01 T01940102  RH  055%=      5-min Rain = 0
KHA2 160148Z 13012KT 20/10 A2988 RMK A01 T01950099  RH  054%=      5-min Rain = 0
KHA2 160149Z 13013KT 20/10 A2988 RMK A01 T01980097  RH  052%=      5-min Rain = 0
KHA2 160150Z 13011KT 20/10 A2988 RMK A01 T02000097  RH  051%=      5-min Rain = 0
KHA2 160151Z 13012KT 20/10 A2987 RMK A01 T02010096  RH  051%=      5-min Rain = 0
KHA2 160152Z 13012KT 20/10 A2987 RMK A01 T02020095  RH  050%=      5-min Rain = 0
KHA2 160153Z 13011KT 20/10 A2987 RMK A01 T02020095  RH  050%=      5-min Rain = 0
KHA2 160154Z 12010KT 20/10 A2986 RMK A01 T02030096  RH  050%=      5-min Rain = 0
KHA2 160155Z 12011KT 20/10 A2986 RMK A01 T02020096  RH  050%=      5-min Rain = 0
KHA2 160156Z 12011KT 20/10 A2986 RMK A01 T02020096  RH  051%=      5-min Rain = 0
KHA2 160157Z 12010KT 20/10 A2986 RMK A01 T02020097  RH  051%=      5-min Rain = 0
KHA2 160158Z 12009KT 20/10 A2985 RMK A01 T02010097  RH  051%=      5-min Rain = 0
KHA2 160159Z 11009KT 20/10 A2985 RMK A01 T02010098  RH  052%=      5-min Rain = 0
KHA2 160200Z 11009KT 20/10 A2985 RMK A01 T02000098  RH  052%=      5-min Rain = 0
KHA2 160201Z 11010KT 20/10 A2984 RMK A01 T02000098  RH  052%=      5-min Rain = 0
KHA2 160202Z 11010KT 20/10 A2984 RMK A01 T02000098  RH  052%=      5-min Rain = 0
KHA2 160203Z 11010KT 20/10 A2984 RMK A01 T02000097  RH  051%=      5-min Rain = 0
KHA2 160204Z 11010KT 20/10 A2983 RMK A01 T02010096  RH  051%=      5-min Rain = 0
KHA2 160205Z 11010KT 20/09 A2983 RMK A01 T02020094  RH  050%=      5-min Rain = 0
KHA2 160206Z 11010KT 20/09 A2983 RMK A01 T02030092  RH  049%=      5-min Rain = 0
KHA2 160207Z 11010KT 21/09 A2983 RMK A01 T02050090  RH  048%=      5-min Rain = 0
KHA2 160208Z 11010KT 21/09 A2983 RMK A01 T02070087  RH  046%=      5-min Rain = 0
KHA2 160209Z 11009KT 21/08 A2983 RMK A01 T02100084  RH  044%=      5-min Rain = 0
KHA2 160210Z 10009KT 21/09 A2983 RMK A01 T02120086  RH  044%=      5-min Rain = 0
KHA2 160211Z 10008KT 21/09 A2983 RMK A01 T02130085  RH  044%=      5-min Rain = 0
KHA2 160212Z 10008KT 21/09 A2983 RMK A01 T02140086  RH  044%=      5-min Rain = 0
KHA2 160213Z 10007KT 21/09 A2983 RMK A01 T02140086  RH  044%=      5-min Rain = 0
KHA2 160214Z 09006KT 21/09 A2983 RMK A01 T02140088  RH  044%=      5-min Rain = 0
KHA2 160215Z 09007KT 21/09 A2983 RMK A01 T02140089  RH  045%=      5-min Rain = 0
KHA2 160216Z 09007KT 21/09 A2983 RMK A01 T02140089  RH  045%=      5-min Rain = 0
KHA2 160217Z 12007KT 22/09 A2983 RMK A01 T02150091  RH  045%=      5-min Rain = 0
KHA2 160218Z 10005KT 21/09 A2983 RMK A01 T02130085  RH  044%=      5-min Rain = 0
KHA2 160219Z 07008KT 21/09 A2983 RMK A01 T02100090  RH  046%=      5-min Rain = 0
KHA2 160220Z 06011KT 21/09 A2983 RMK A01 T02080091  RH  047%=      5-min Rain = 0
KHA2 160221Z 06011KT 21/09 A2983 RMK A01 T02080091  RH  047%=      5-min Rain = 0
KHA2 160222Z 07009KT 21/09 A2984 RMK A01 T02080091  RH  047%=      5-min Rain = 0
KHA2 160223Z 07008KT 21/09 A2984 RMK A01 T02070092  RH  047%=      5-min Rain = 0
KHA2 160224Z 06008KT 21/09 A2984 RMK A01 T02060093  RH  048%=      5-min Rain = 0
KHA2 160225Z 06008KT 21/09 A2984 RMK A01 T02050092  RH  048%=      5-min Rain = 0
KHA2 160226Z 05007KT 20/09 A2984 RMK A01 T02040093  RH  049%=      5-min Rain = 0
KHA2 160227Z 05007KT 20/10 A2984 RMK A01 T02030095  RH  050%=      5-min Rain = 0
KHA2 160228Z 05007KT 20/10 A2984 RMK A01 T02010096  RH  051%=      5-min Rain = 0
KHA2 160229Z 04006KT 20/10 A2984 RMK A01 T02000098  RH  052%=      5-min Rain = 0
KHA2 160230Z 03007KT 20/10 A2984 RMK A01 T01990099  RH  052%=      5-min Rain = 0
KHA2 160231Z 03007KT 20/10 A2984 RMK A01 T01980098  RH  052%=      5-min Rain = 0
KHA2 160232Z 02006KT 20/10 A2984 RMK A01 T01980098  RH  052%=      5-min Rain = 0
KHA2 160233Z 03007KT 20/10 A2984 RMK A01 T01970097  RH  052%=      5-min Rain = 0
KHA2 160234Z 03007KT 20/09 A2984 RMK A01 T01980094  RH  051%=      5-min Rain = 0
KHA2 160235Z 04007KT 20/09 A2984 RMK A01 T01990093  RH  051%=      5-min Rain = 0
KHA2 160236Z 04008KT 20/09 A2984 RMK A01 T02000092  RH  049%=      5-min Rain = 0
KHA2 160237Z 03008KT 20/09 A2984 RMK A01 T02030091  RH  048%=      5-min Rain = 0
KHA2 160238Z 02009KT 20/10 A2984 RMK A01 T02040095  RH  050%=      5-min Rain = 0
KHA2 160239Z 02010KT 20/10 A2984 RMK A01 T02020097  RH  051%=      5-min Rain = 0
KHA2 160240Z 02011KT 20/10 A2984 RMK A01 T02010098  RH  052%=      5-min Rain = 0
KHA2 160241Z 02009KT 20/10 A2984 RMK A01 T02010099  RH  052%=      5-min Rain = 0
KHA2 160242Z 03008KT 20/10 A2984 RMK A01 T02010100  RH  052%=      5-min Rain = 0
KHA2 160243Z 03008KT 20/10 A2984 RMK A01 T02010098  RH  051%=      5-min Rain = 0
KHA2 160244Z 03008KT 20/10 A2984 RMK A01 T02020100  RH  052%=      5-min Rain = 0
KHA2 160245Z 04007KT 20/10 A2984 RMK A01 T02010099  RH  052%=      5-min Rain = 0
KHA2 160246Z 04008KT 20/10 A2984 RMK A01 T02010097  RH  051%=      5-min Rain = 0
KHA2 160247Z 04007KT 20/10 A2984 RMK A01 T02010097  RH  051%=      5-min Rain = 0
KHA2 160248Z 04008KT 20/10 A2984 RMK A01 T02010098  RH  051%=      5-min Rain = 0
KHA2 160249Z 04008KT 20/10 A2984 RMK A01 T02010099  RH  052%=      5-min Rain = 0
KHA2 160250Z 03008KT 20/10 A2985 RMK A01 T02000099  RH  052%=      5-min Rain = 0
KHA2 160251Z 03008KT 20/10 A2985 RMK A01 T01990100  RH  053%=      5-min Rain = 0
KHA2 160252Z 03009KT 20/10 A2985 RMK A01 T01980100  RH  053%=      5-min Rain = 0
KHA2 160253Z 02009KT 20/10 A2985 RMK A01 T01970100  RH  053%=      5-min Rain = 0
KHA2 160254Z 03009KT 20/10 A2985 RMK A01 T01970100  RH  053%=      5-min Rain = 0
KHA2 160255Z 02010KT 20/10 A2986 RMK A01 T01970101  RH  054%=      5-min Rain = 0
KHA2 160256Z 01010KT 20/10 A2986 RMK A01 T01970099  RH  053%=      5-min Rain = 0
KHA2 160257Z 36011KT 20/10 A2987 RMK A01 T01980097  RH  052%=      5-min Rain = 0
KHA2 160258Z 34016G22KT 20/10 A2988 RMK A01 T01990096  RH  052%=      5-min Rain = 0
KHA2 160259Z 33022KT 20/10 A2989 RMK A01 T01990098  RH  052%=      5-min Rain = 0
KHA2 160300Z 34023KT 20/10 A2989 RMK A01 T01970101  RH  054%=      5-min Rain = 0
KHA2 160301Z 34021KT 20/10 A2989 RMK A01 T01980101  RH  054%=      5-min Rain = 0
KHA2 160302Z 34019KT 20/10 A2989 RMK A01 T01990102  RH  054%=      5-min Rain = 0
KHA2 160303Z 35021KT 20/10 A2989 RMK A01 T02010102  RH  053%=      5-min Rain = 0
KHA2 160304Z 35021KT 20/10 A2989 RMK A01 T02030097  RH  051%=      5-min Rain = 0
KHA2 160305Z 36020KT 21/09 A2989 RMK A01 T02100087  RH  045%=      5-min Rain = 0
KHA2 160306Z 35019KT 22/09 A2989 RMK A01 T02160088  RH  044%=      5-min Rain = 0
KHA2 160307Z 36017KT 22/09 A299 RMK A01 T02180090  RH  044%=      5-min Rain = 0
KHA2 160308Z 35017KT 22/09 A299 RMK A01 T02180092  RH  045%=      5-min Rain = 0
KHA2 160309Z 35016KT 22/09 A299 RMK A01 T02170091  RH  045%=      5-min Rain = 0
KHA2 160310Z 35016KT 22/09 A299 RMK A01 T02170087  RH  043%=      5-min Rain = 0
KHA2 160311Z 35016KT 22/09 A299 RMK A01 T02180087  RH  043%=      5-min Rain = 0
KHA2 160312Z 36013KT 22/09 A299 RMK A01 T02190089  RH  043%=      5-min Rain = 0
KHA2 160313Z 00012KT 22/09 A299 RMK A01 T02180090  RH  044%=      5-min Rain = 0
KHA2 160314Z 00011KT 22/09 A299 RMK A01 T02180090  RH  044%=      5-min Rain = 0
KHA2 160315Z 00011KT 22/09 A299 RMK A01 T02170090  RH  044%=      5-min Rain = 0
KHA2 160316Z 35012KT 22/09 A299 RMK A01 T02170089  RH  044%=      5-min Rain = 0
KHA2 160317Z 35012KT 22/09 A2991 RMK A01 T02170090  RH  044%=      5-min Rain = 0
KHA2 160318Z 35012KT 22/09 A2991 RMK A01 T02150092  RH  045%=      5-min Rain = 0
KHA2 160319Z 35014KT 21/09 A2991 RMK A01 T02140093  RH  046%=      5-min Rain = 0
KHA2 160320Z 35014KT 21/09 A2991 RMK A01 T02130094  RH  046%=      5-min Rain = 0
KHA2 160321Z 35014KT 21/09 A299 RMK A01 T02130094  RH  047%=      5-min Rain = 0
KHA2 160322Z 35015KT 21/10 A299 RMK A01 T02130095  RH  047%=      5-min Rain = 0
KHA2 160323Z 36014KT 21/10 A299 RMK A01 T02130096  RH  047%=      5-min Rain = 0
KHA2 160324Z 36016KT 21/10 A299 RMK A01 T02130097  RH  047%=      5-min Rain = 0
KHA2 160325Z 36017KT 21/10 A299 RMK A01 T02140099  RH  048%=      5-min Rain = 0
KHA2 160326Z 36015KT 22/10 A2991 RMK A01 T02150101  RH  048%=      5-min Rain = 0
KHA2 160327Z 36018KT 22/10 A2991 RMK A01 T02150103  RH  049%=      5-min Rain = 0
KHA2 160328Z 36018KT 21/11 A2991 RMK A01 T02140106  RH  050%=      5-min Rain = 0
KHA2 160329Z 36018G23KT 21/11 A2991 RMK A01 T02140107  RH  050%=      5-min Rain = 0
KHA2 160330Z 35019KT 21/11 A2991 RMK A01 T02130109  RH  051%=      5-min Rain = 0
KHA2 160331Z 36018KT 21/11 A2991 RMK A01 T02120109  RH  052%=      5-min Rain = 0
KHA2 160332Z 35018G23KT 21/11 A2991 RMK A01 T02100109  RH  052%=      5-min Rain = 0
KHA2 160333Z 36021KT 21/11 A2991 RMK A01 T02090109  RH  053%=      5-min Rain = 0
KHA2 160334Z 36020KT 21/11 A2991 RMK A01 T02080109  RH  053%=      5-min Rain = 0
KHA2 160335Z 00018KT 21/11 A2991 RMK A01 T02070110  RH  054%=      5-min Rain = 0
KHA2 160336Z 36018G23KT 21/11 A2991 RMK A01 T02060110  RH  054%=      5-min Rain = 0
KHA2 160337Z 36021G26KT 21/11 A2991 RMK A01 T02050110  RH  054%=      5-min Rain = 0
KHA2 160338Z 36022KT 21/11 A2991 RMK A01 T02050109  RH  054%=      5-min Rain = 0
KHA2 160339Z 36021KT 20/11 A2991 RMK A01 T02040109  RH  054%=      5-min Rain = 0
KHA2 160340Z 35020KT 20/11 A2991 RMK A01 T02040109  RH  054%=      5-min Rain = 0
KHA2 160341Z 00020KT 20/11 A2991 RMK A01 T02030109  RH  055%=      5-min Rain = 0
KHA2 160342Z 35019KT 20/11 A2991 RMK A01 T02020108  RH  055%=      5-min Rain = 0
KHA2 160343Z 00016G21KT 20/11 A2991 RMK A01 T02020109  RH  055%=      5-min Rain = 0
KHA2 160344Z 00017KT 20/11 A2991 RMK A01 T02010108  RH  055%=      5-min Rain = 0
KHA2 160345Z 36018KT 20/11 A2991 RMK A01 T02000108  RH  055%=      5-min Rain = 0
KHA2 160346Z 00016KT 20/11 A2992 RMK A01 T02000108  RH  055%=      5-min Rain = 0
KHA2 160347Z 00016KT 20/11 A2992 RMK A01 T01990108  RH  056%=      5-min Rain = 0
KHA2 160348Z 35017KT 20/11 A2992 RMK A01 T01990108  RH  056%=      5-min Rain = 0
KHA2 160349Z 36017KT 20/11 A2992 RMK A01 T01990108  RH  056%=      5-min Rain = 0
KHA2 160350Z 36017KT 20/11 A2992 RMK A01 T01980108  RH  056%=      5-min Rain = 0
KHA2 160351Z 00017KT 20/11 A2992 RMK A01 T01970109  RH  057%=      5-min Rain = 0
KHA2 160352Z 01016KT 20/11 A2992 RMK A01 T01970109  RH  057%=      5-min Rain = 0
KHA2 160353Z 01015G20KT 20/11 A2992 RMK A01 T01960109  RH  057%=      5-min Rain = 0
KHA2 160354Z 01015KT 20/11 A2992 RMK A01 T01960109  RH  057%=      5-min Rain = 0
KHA2 160355Z 01016KT 20/11 A2992 RMK A01 T01960110  RH  057%=      5-min Rain = 0
KHA2 160356Z 01016KT 20/11 A2992 RMK A01 T01950110  RH  058%=      5-min Rain = 0
KHA2 160357Z 01014KT 20/11 A2992 RMK A01 T01950111  RH  058%=      5-min Rain = 0
KHA2 160358Z 02013KT 20/11 A2992 RMK A01 T01950110  RH  058%=      5-min Rain = 0
KHA2 160359Z 02012KT 19/11 A2992 RMK A01 T01940111  RH  059%=      5-min Rain = 0
KHA2 160400Z 02013KT 19/11 A2992 RMK A01 T01940111  RH  059%=      5-min Rain = 0
KHA2 160401Z 02013KT 19/11 A2992 RMK A01 T01930111  RH  059%=      5-min Rain = 0
KHA2 160402Z 02014KT 19/11 A2992 RMK A01 T01930111  RH  059%=      5-min Rain = 0
KHA2 160403Z 01011KT 19/11 A2992 RMK A01 T01920110  RH  059%=      5-min Rain = 0
KHA2 160404Z 02015KT 19/11 A2992 RMK A01 T01920109  RH  059%=      5-min Rain = 0
KHA2 160405Z 02012KT 19/11 A2992 RMK A01 T01920110  RH  059%=      5-min Rain = 0
KHA2 160406Z 02012KT 19/11 A2992 RMK A01 T01920110  RH  059%=      5-min Rain = 0
KHA2 160407Z 02011KT 19/11 A2992 RMK A01 T01910111  RH  059%=      5-min Rain = 0
KHA2 160408Z 03012KT 19/11 A2992 RMK A01 T01910111  RH  060%=      5-min Rain = 0
KHA2 160409Z 03013KT 19/11 A2992 RMK A01 T01900111  RH  060%=      5-min Rain = 0
KHA2 160410Z 03012KT 19/11 A2992 RMK A01 T01900110  RH  060%=      5-min Rain = 0
KHA2 160411Z 02013KT 19/11 A2992 RMK A01 T01900110  RH  060%=      5-min Rain = 0
KHA2 160412Z 02015KT 19/11 A2992 RMK A01 T01890110  RH  060%=      5-min Rain = 0
KHA2 160413Z 02014KT 19/11 A2992 RMK A01 T01890109  RH  060%=      5-min Rain = 0
KHA2 160414Z 02012KT 19/11 A2992 RMK A01 T01890109  RH  060%=      5-min Rain = 0
KHA2 160415Z 02012KT 19/11 A2992 RMK A01 T01880109  RH  060%=      5-min Rain = 0
KHA2 160416Z 01012KT 19/11 A2992 RMK A01 T01880108  RH  060%=      5-min Rain = 0
KHA2 160417Z 01012KT 19/11 A2992 RMK A01 T01880108  RH  060%=      5-min Rain = 0
KHA2 160418Z 02010KT 19/11 A2992 RMK A01 T01880109  RH  060%=      5-min Rain = 0
KHA2 160419Z 03008KT 19/11 A2992 RMK A01 T01870110  RH  061%=      5-min Rain = 0
KHA2 160420Z 03010KT 19/11 A2993 RMK A01 T01870110  RH  061%=      5-min Rain = 0
KHA2 160421Z 02011KT 19/11 A2993 RMK A01 T01860110  RH  061%=      5-min Rain = 0
KHA2 160422Z 02011KT 19/11 A2993 RMK A01 T01860110  RH  061%=      5-min Rain = 0
KHA2 160423Z 03012KT 19/11 A2993 RMK A01 T01860110  RH  061%=      5-min Rain = 0
KHA2 160424Z 02013KT 19/11 A2993 RMK A01 T01860110  RH  061%=      5-min Rain = 0
KHA2 160425Z 02010KT 19/11 A2993 RMK A01 T01860110  RH  061%=      5-min Rain = 0
KHA2 160426Z 02011KT 19/11 A2993 RMK A01 T01850110  RH  061%=      5-min Rain = 0
KHA2 160427Z 02013KT 19/11 A2992 RMK A01 T01850110  RH  061%=      5-min Rain = 0
KHA2 160428Z 02011KT 19/11 A2992 RMK A01 T01850110  RH  061%=      5-min Rain = 0
KHA2 160429Z 02012KT 19/11 A2992 RMK A01 T01850110  RH  062%=      5-min Rain = 0
KHA2 160430Z 02011KT 19/11 A2992 RMK A01 T01850110  RH  062%=      5-min Rain = 0
KHA2 160431Z 02012KT 18/11 A2992 RMK A01 T01840109  RH  062%=      5-min Rain = 0
KHA2 160432Z 02011KT 18/11 A2992 RMK A01 T01840110  RH  062%=      5-min Rain = 0
KHA2 160433Z 02012KT 18/11 A2992 RMK A01 T01840110  RH  062%=      5-min Rain = 0
KHA2 160434Z 02010KT 18/11 A2992 RMK A01 T01840110  RH  062%=      5-min Rain = 0
KHA2 160435Z 02011KT 18/11 A2992 RMK A01 T01830110  RH  062%=      5-min Rain = 0
KHA2 160436Z 02010KT 18/11 A2992 RMK A01 T01830110  RH  063%=      5-min Rain = 0
KHA2 160437Z 02010KT 18/11 A2992 RMK A01 T01820111  RH  063%=      5-min Rain = 0
KHA2 160438Z 02008KT 18/11 A2992 RMK A01 T01820111  RH  063%=      5-min Rain = 0
KHA2 160439Z 02009KT 18/11 A2992 RMK A01 T01810111  RH  064%=      5-min Rain = 0
KHA2 160440Z 02009KT 18/11 A2992 RMK A01 T01810111  RH  064%=      5-min Rain = 0
KHA2 160441Z 02009KT 18/11 A2992 RMK A01 T01810112  RH  064%=      5-min Rain = 0
KHA2 160442Z 02009KT 18/11 A2992 RMK A01 T01800112  RH  064%=      5-min Rain = 0
KHA2 160443Z 02008KT 18/11 A2992 RMK A01 T01800112  RH  064%=      5-min Rain = 0
KHA2 160444Z 01008KT 18/11 A2992 RMK A01 T01800112  RH  064%=      5-min Rain = 0
KHA2 160445Z 02008KT 18/11 A2992 RMK A01 T01790111  RH  064%=      5-min Rain = 0
KHA2 160446Z 02007KT 18/11 A2992 RMK A01 T01790112  RH  065%=      5-min Rain = 0
KHA2 160447Z 02007KT 18/11 A2992 RMK A01 T01790113  RH  065%=      5-min Rain = 0
KHA2 160448Z 02006KT 18/11 A2992 RMK A01 T01790113  RH  065%=      5-min Rain = 0
KHA2 160449Z 03004KT 18/11 A2992 RMK A01 T01780113  RH  065%=      5-min Rain = 0
KHA2 160450Z 03004KT 18/11 A2992 RMK A01 T01780113  RH  066%=      5-min Rain = 0
KHA2 160451Z 03004KT 18/11 A2992 RMK A01 T01770114  RH  066%=      5-min Rain = 0
KHA2 160452Z 03004KT 18/11 A2992 RMK A01 T01770113  RH  066%=      5-min Rain = 0
KHA2 160453Z 04004KT 18/11 A2993 RMK A01 T01760114  RH  067%=      5-min Rain = 0
KHA2 160454Z 05003KT 18/11 A2993 RMK A01 T01760114  RH  067%=      5-min Rain = 0
KHA2 160455Z 05003KT 18/11 A2993 RMK A01 T01760114  RH  067%=      5-min Rain = 0
KHA2 160456Z 08003KT 18/11 A2993 RMK A01 T01750114  RH  067%=      5-min Rain = 0
KHA2 160457Z 09003KT 17/12 A2993 RMK A01 T01740116  RH  068%=      5-min Rain = 0
KHA2 160458Z 09004KT 17/12 A2994 RMK A01 T01740118  RH  070%=      5-min Rain = 0
KHA2 160459Z 09005KT 17/12 A2994 RMK A01 T01730119  RH  071%=      5-min Rain = 0

Page generated in 0.1321 seconds.